<?xml version="1.0" encoding="UTF-8"?>
<gpx  version="1.1"  creator="Verlag Esterbauer" xmlns:xsi="http://www.w3.org/2001/XMLSchema-instance" xmlns="http://www.topografix.com/GPX/1/1"  xsi:schemaLocation="http://www.topografix.com/GPX/1/1 http://www.topografix.com/GPX/1/1/gpx.xsd">
<metadata>
  <time>2013-07-22T13:57:40Z</time>
</metadata>
<trk>
  <name>rmf#16_1</name>
  <trkseg>
    <trkpt lat="50.107516" lon="8.665189">
    <ele>108</ele>
    <time>2013-04-30T08:06:19Z</time>
  <cmt>extensions = 112.00</cmt>
    </trkpt>
    <trkpt lat="50.107721" lon="8.665967">
    <ele>108</ele>
    <time>2013-04-30T08:06:41Z</time>
  <cmt>extensions = 2.73 117.00</cmt>
    </trkpt>
    <trkpt lat="50.107932" lon="8.666798">
    <ele>108</ele>
    <time>2013-04-30T08:07:03Z</time>
  <cmt>extensions = 2.90 115.00</cmt>
    </trkpt>
    <trkpt lat="50.107932" lon="8.666798">
    <ele>108</ele>
    <time>2013-04-30T08:07:03Z</time>
  <cmt>extensions = 115.00</cmt>
    </trkpt>
    <trkpt lat="50.105601" lon="8.669875">
    <ele>106</ele>
    <time>2013-04-30T08:08:33Z</time>
  <cmt>extensions = 3.78 112.00</cmt>
    </trkpt>
    <trkpt lat="50.104853" lon="8.670841">
    <ele>104</ele>
    <time>2013-04-30T08:09:01Z</time>
  <cmt>extensions = 3.86 108.00</cmt>
    </trkpt>
    <trkpt lat="50.104853" lon="8.670841">
    <ele>104</ele>
    <time>2013-04-30T08:09:01Z</time>
  <cmt>extensions = 108.00</cmt>
    </trkpt>
    <trkpt lat="50.104123" lon="8.671787">
    <ele>100</ele>
    <time>2013-04-30T08:09:28Z</time>
  <cmt>extensions = 3.91 95.00</cmt>
    </trkpt>
    <trkpt lat="50.103515" lon="8.67256">
    <ele>98</ele>
    <time>2013-04-30T08:09:52Z</time>
  <cmt>extensions = 3.64 101.00</cmt>
    </trkpt>
    <trkpt lat="50.103533" lon="8.672556">
    <ele>98</ele>
    <time>2013-04-30T08:09:52Z</time>
  <cmt>extensions = 101.00</cmt>
    </trkpt>
    <trkpt lat="50.103408" lon="8.672994">
    <ele>98</ele>
    <time>2013-04-30T08:10:04Z</time>
  <cmt>extensions = 2.86 102.00</cmt>
    </trkpt>
    <trkpt lat="50.103847" lon="8.673931">
    <ele>100</ele>
    <time>2013-04-30T08:10:29Z</time>
  <cmt>extensions = 3.31 101.00</cmt>
    </trkpt>
    <trkpt lat="50.103931" lon="8.673734">
    <ele>100</ele>
    <time>2013-04-30T08:10:34Z</time>
  <cmt>extensions = 3.38 101.00</cmt>
    </trkpt>
    <trkpt lat="50.103596" lon="8.673017">
    <ele>100</ele>
    <time>2013-04-30T08:10:54Z</time>
  <cmt>extensions = 3.17 102.00</cmt>
    </trkpt>
    <trkpt lat="50.103708" lon="8.672856">
    <ele>100</ele>
    <time>2013-04-30T08:10:58Z</time>
  <cmt>extensions = 4.24 102.00</cmt>
    </trkpt>
    <trkpt lat="50.103606" lon="8.672744">
    <ele>100</ele>
    <time>2013-04-30T08:11:01Z</time>
  <cmt>extensions = 4.62 101.00</cmt>
    </trkpt>
    <trkpt lat="50.104186" lon="8.673914">
    <ele>100</ele>
    <time>2013-04-30T08:11:33Z</time>
  <cmt>extensions = 3.30 101.00</cmt>
    </trkpt>
    <trkpt lat="50.104694" lon="8.674978">
    <ele>99</ele>
    <time>2013-04-30T08:12:02Z</time>
  <cmt>extensions = 3.27 100.00</cmt>
    </trkpt>
    <trkpt lat="50.105643" lon="8.677179">
    <ele>98</ele>
    <time>2013-04-30T08:13:02Z</time>
  <cmt>extensions = 3.15 98.00</cmt>
    </trkpt>
    <trkpt lat="50.105576" lon="8.677044">
    <ele>98</ele>
    <time>2013-04-30T08:13:05Z</time>
  <cmt>extensions = 4.05 98.00</cmt>
    </trkpt>
    <trkpt lat="50.105937" lon="8.67788">
    <ele>97</ele>
    <time>2013-04-30T08:13:28Z</time>
  <cmt>extensions = 3.13 99.00</cmt>
    </trkpt>
    <trkpt lat="50.105961" lon="8.677879">
    <ele>97</ele>
    <time>2013-04-30T08:13:28Z</time>
  <cmt>extensions = 99.00</cmt>
    </trkpt>
    <trkpt lat="50.107169" lon="8.681068">
    <ele>96</ele>
    <time>2013-04-30T08:14:54Z</time>
  <cmt>extensions = 3.07 97.00</cmt>
    </trkpt>
    <trkpt lat="50.107535" lon="8.682975">
    <ele>97</ele>
    <time>2013-04-30T08:15:44Z</time>
  <cmt>extensions = 2.84 97.00</cmt>
    </trkpt>
    <trkpt lat="50.10777" lon="8.684338">
    <ele>98</ele>
    <time>2013-04-30T08:16:20Z</time>
  <cmt>extensions = 2.80 97.00</cmt>
    </trkpt>
    <trkpt lat="50.107806" lon="8.685257">
    <ele>99</ele>
    <time>2013-04-30T08:16:44Z</time>
  <cmt>extensions = 2.74 99.00</cmt>
    </trkpt>
    <trkpt lat="50.107764" lon="8.686117">
    <ele>98</ele>
    <time>2013-04-30T08:17:07Z</time>
  <cmt>extensions = 2.68 100.00</cmt>
    </trkpt>
    <trkpt lat="50.107589" lon="8.687214">
    <ele>98</ele>
    <time>2013-04-30T08:17:36Z</time>
  <cmt>extensions = 2.78 98.00</cmt>
    </trkpt>
    <trkpt lat="50.107589" lon="8.687148">
    <ele>98</ele>
    <time>2013-04-30T08:17:37Z</time>
  <cmt>extensions = 4.70 98.00</cmt>
    </trkpt>
    <trkpt lat="50.107489" lon="8.688182">
    <ele>99</ele>
    <time>2013-04-30T08:18:04Z</time>
  <cmt>extensions = 2.76 97.00</cmt>
    </trkpt>
    <trkpt lat="50.107489" lon="8.688182">
    <ele>99</ele>
    <time>2013-04-30T08:18:04Z</time>
  <cmt>extensions = 97.00</cmt>
    </trkpt>
    <trkpt lat="50.107479" lon="8.689403">
    <ele>101</ele>
    <time>2013-04-30T08:18:36Z</time>
  <cmt>extensions = 2.72 99.00</cmt>
    </trkpt>
    <trkpt lat="50.107211" lon="8.691969">
    <ele>102</ele>
    <time>2013-04-30T08:19:44Z</time>
  <cmt>extensions = 2.73 98.00</cmt>
    </trkpt>
    <trkpt lat="50.107211" lon="8.691969">
    <ele>102</ele>
    <time>2013-04-30T08:19:44Z</time>
  <cmt>extensions = 98.00</cmt>
    </trkpt>
    <trkpt lat="50.107144" lon="8.69288">
    <ele>101</ele>
    <time>2013-04-30T08:20:08Z</time>
  <cmt>extensions = 2.73 96.00</cmt>
    </trkpt>
    <trkpt lat="50.107144" lon="8.69288">
    <ele>101</ele>
    <time>2013-04-30T08:20:08Z</time>
  <cmt>extensions = 96.00</cmt>
    </trkpt>
    <trkpt lat="50.106978" lon="8.694658">
    <ele>98</ele>
    <time>2013-04-30T08:20:55Z</time>
  <cmt>extensions = 2.73 93.00</cmt>
    </trkpt>
    <trkpt lat="50.106978" lon="8.694658">
    <ele>98</ele>
    <time>2013-04-30T08:20:55Z</time>
  <cmt>extensions = 93.00</cmt>
    </trkpt>
    <trkpt lat="50.106866" lon="8.695458">
    <ele>98</ele>
    <time>2013-04-30T08:21:16Z</time>
  <cmt>extensions = 2.78 92.00</cmt>
    </trkpt>
    <trkpt lat="50.106866" lon="8.695458">
    <ele>98</ele>
    <time>2013-04-30T08:21:16Z</time>
  <cmt>extensions = 92.00</cmt>
    </trkpt>
    <trkpt lat="50.106026" lon="8.704133">
    <ele>98</ele>
    <time>2013-04-30T08:25:09Z</time>
  <cmt>extensions = 2.69 104.00</cmt>
    </trkpt>
    <trkpt lat="50.106076" lon="8.70471">
    <ele>99</ele>
    <time>2013-04-30T08:25:24Z</time>
  <cmt>extensions = 2.77 103.00</cmt>
    </trkpt>
    <trkpt lat="50.106086" lon="8.705013">
    <ele>99</ele>
    <time>2013-04-30T08:25:32Z</time>
  <cmt>extensions = 2.71 103.00</cmt>
    </trkpt>
    <trkpt lat="50.106111" lon="8.704994">
    <ele>99</ele>
    <time>2013-04-30T08:25:32Z</time>
  <cmt>extensions = 103.00</cmt>
    </trkpt>
    <trkpt lat="50.106084" lon="8.705497">
    <ele>99</ele>
    <time>2013-04-30T08:25:45Z</time>
  <cmt>extensions = 2.77 103.00</cmt>
    </trkpt>
    <trkpt lat="50.106149" lon="8.705587">
    <ele>99</ele>
    <time>2013-04-30T08:25:47Z</time>
  <cmt>extensions = 4.84 103.00</cmt>
    </trkpt>
    <trkpt lat="50.105704" lon="8.715767">
    <ele>97</ele>
    <time>2013-04-30T08:30:16Z</time>
  <cmt>extensions = 2.71 99.00</cmt>
    </trkpt>
    <trkpt lat="50.105704" lon="8.715767">
    <ele>97</ele>
    <time>2013-04-30T08:30:16Z</time>
  <cmt>extensions = 99.00</cmt>
    </trkpt>
    <trkpt lat="50.105691" lon="8.716544">
    <ele>97</ele>
    <time>2013-04-30T08:30:36Z</time>
  <cmt>extensions = 2.77 99.00</cmt>
    </trkpt>
    <trkpt lat="50.105711" lon="8.717444">
    <ele>98</ele>
    <time>2013-04-30T08:30:59Z</time>
  <cmt>extensions = 2.79 99.00</cmt>
    </trkpt>
    <trkpt lat="50.105721" lon="8.717312">
    <ele>98</ele>
    <time>2013-04-30T08:31:02Z</time>
  <cmt>extensions = 3.15 99.00</cmt>
    </trkpt>
    <trkpt lat="50.105897" lon="8.719265">
    <ele>98</ele>
    <time>2013-04-30T08:31:53Z</time>
  <cmt>extensions = 2.76 99.00</cmt>
    </trkpt>
    <trkpt lat="50.106072" lon="8.720685">
    <ele>98</ele>
    <time>2013-04-30T08:32:30Z</time>
  <cmt>extensions = 2.79 99.00</cmt>
    </trkpt>
    <trkpt lat="50.106332" lon="8.721782">
    <ele>99</ele>
    <time>2013-04-30T08:32:59Z</time>
  <cmt>extensions = 2.88 101.00</cmt>
    </trkpt>
    <trkpt lat="50.106264" lon="8.72224">
    <ele>99</ele>
    <time>2013-04-30T08:33:11Z</time>
  <cmt>extensions = 2.80 102.00</cmt>
    </trkpt>
    <trkpt lat="50.106399" lon="8.722736">
    <ele>99</ele>
    <time>2013-04-30T08:33:24Z</time>
  <cmt>extensions = 2.96 101.00</cmt>
    </trkpt>
    <trkpt lat="50.106708" lon="8.723967">
    <ele>99</ele>
    <time>2013-04-30T08:33:57Z</time>
  <cmt>extensions = 2.86 103.00</cmt>
    </trkpt>
    <trkpt lat="50.107006" lon="8.725076">
    <ele>99</ele>
    <time>2013-04-30T08:34:26Z</time>
  <cmt>extensions = 2.96 101.00</cmt>
    </trkpt>
    <trkpt lat="50.107345" lon="8.726261">
    <ele>99</ele>
    <time>2013-04-30T08:34:57Z</time>
  <cmt>extensions = 2.99 99.00</cmt>
    </trkpt>
    <trkpt lat="50.107124" lon="8.72709">
    <ele>99</ele>
    <time>2013-04-30T08:35:19Z</time>
  <cmt>extensions = 2.91 100.00</cmt>
    </trkpt>
    <trkpt lat="50.107338" lon="8.727349">
    <ele>99</ele>
    <time>2013-04-30T08:35:26Z</time>
  <cmt>extensions = 4.31 100.00</cmt>
    </trkpt>
    <trkpt lat="50.107682" lon="8.728102">
    <ele>98</ele>
    <time>2013-04-30T08:35:46Z</time>
  <cmt>extensions = 3.30 99.00</cmt>
    </trkpt>
    <trkpt lat="50.107741" lon="8.728809">
    <ele>97</ele>
    <time>2013-04-30T08:36:04Z</time>
  <cmt>extensions = 2.83 100.00</cmt>
    </trkpt>
    <trkpt lat="50.107821" lon="8.729134">
    <ele>97</ele>
    <time>2013-04-30T08:36:12Z</time>
  <cmt>extensions = 3.11 100.00</cmt>
    </trkpt>
    <trkpt lat="50.108139" lon="8.729355">
    <ele>97</ele>
    <time>2013-04-30T08:36:19Z</time>
  <cmt>extensions = 5.54 100.00</cmt>
    </trkpt>
    <trkpt lat="50.108326" lon="8.729687">
    <ele>97</ele>
    <time>2013-04-30T08:36:28Z</time>
  <cmt>extensions = 3.51 100.00</cmt>
    </trkpt>
    <trkpt lat="50.108455" lon="8.730063">
    <ele>97</ele>
    <time>2013-04-30T08:36:38Z</time>
  <cmt>extensions = 3.04 100.00</cmt>
    </trkpt>
    <trkpt lat="50.108884" lon="8.731637">
    <ele>98</ele>
    <time>2013-04-30T08:37:21Z</time>
  <cmt>extensions = 2.84 104.00</cmt>
    </trkpt>
    <trkpt lat="50.109468" lon="8.733488">
    <ele>100</ele>
    <time>2013-04-30T08:38:11Z</time>
  <cmt>extensions = 2.95 105.00</cmt>
    </trkpt>
    <trkpt lat="50.110068" lon="8.735439">
    <ele>102</ele>
    <time>2013-04-30T08:39:03Z</time>
  <cmt>extensions = 2.97 106.00</cmt>
    </trkpt>
    <trkpt lat="50.110089" lon="8.735451">
    <ele>102</ele>
    <time>2013-04-30T08:39:03Z</time>
  <cmt>extensions = 106.00</cmt>
    </trkpt>
    <trkpt lat="50.110584" lon="8.736748">
    <ele>100</ele>
    <time>2013-04-30T08:39:38Z</time>
  <cmt>extensions = 3.08 106.00</cmt>
    </trkpt>
    <trkpt lat="50.11058" lon="8.736778">
    <ele>100</ele>
    <time>2013-04-30T08:39:38Z</time>
  <cmt>extensions = 106.00</cmt>
    </trkpt>
    <trkpt lat="50.111364" lon="8.738542">
    <ele>99</ele>
    <time>2013-04-30T08:40:26Z</time>
  <cmt>extensions = 3.19 102.00</cmt>
    </trkpt>
    <trkpt lat="50.111364" lon="8.738542">
    <ele>99</ele>
    <time>2013-04-30T08:40:26Z</time>
  <cmt>extensions = 102.00</cmt>
    </trkpt>
    <trkpt lat="50.111644" lon="8.739432">
    <ele>100</ele>
    <time>2013-04-30T08:40:50Z</time>
  <cmt>extensions = 2.95 102.00</cmt>
    </trkpt>
    <trkpt lat="50.111719" lon="8.740296">
    <ele>100</ele>
    <time>2013-04-30T08:41:12Z</time>
  <cmt>extensions = 2.83 101.00</cmt>
    </trkpt>
    <trkpt lat="50.111876" lon="8.741321">
    <ele>101</ele>
    <time>2013-04-30T08:41:39Z</time>
  <cmt>extensions = 2.78 99.00</cmt>
    </trkpt>
    <trkpt lat="50.111937" lon="8.741135">
    <ele>101</ele>
    <time>2013-04-30T08:41:44Z</time>
  <cmt>extensions = 2.98 100.00</cmt>
    </trkpt>
    <trkpt lat="50.112003" lon="8.741726">
    <ele>101</ele>
    <time>2013-04-30T08:41:59Z</time>
  <cmt>extensions = 2.85 100.00</cmt>
    </trkpt>
    <trkpt lat="50.11228" lon="8.744219">
    <ele>101</ele>
    <time>2013-04-30T08:43:05Z</time>
  <cmt>extensions = 2.74 100.00</cmt>
    </trkpt>
    <trkpt lat="50.11233" lon="8.74546">
    <ele>101</ele>
    <time>2013-04-30T08:43:37Z</time>
  <cmt>extensions = 2.77 98.00</cmt>
    </trkpt>
    <trkpt lat="50.112393" lon="8.747025">
    <ele>101</ele>
    <time>2013-04-30T08:44:18Z</time>
  <cmt>extensions = 2.73 100.00</cmt>
    </trkpt>
    <trkpt lat="50.112362" lon="8.74822">
    <ele>101</ele>
    <time>2013-04-30T08:44:50Z</time>
  <cmt>extensions = 2.67 104.00</cmt>
    </trkpt>
    <trkpt lat="50.112338" lon="8.749154">
    <ele>101</ele>
    <time>2013-04-30T08:45:16Z</time>
  <cmt>extensions = 2.57 110.00</cmt>
    </trkpt>
    <trkpt lat="50.112118" lon="8.751174">
    <ele>101</ele>
    <time>2013-04-30T08:46:10Z</time>
  <cmt>extensions = 2.71 114.00</cmt>
    </trkpt>
    <trkpt lat="50.112004" lon="8.75231">
    <ele>101</ele>
    <time>2013-04-30T08:46:40Z</time>
  <cmt>extensions = 2.74 111.00</cmt>
    </trkpt>
    <trkpt lat="50.111991" lon="8.752441">
    <ele>100</ele>
    <time>2013-04-30T08:46:43Z</time>
  <cmt>extensions = 3.15 111.00</cmt>
    </trkpt>
    <trkpt lat="50.112065" lon="8.753048">
    <ele>100</ele>
    <time>2013-04-30T08:46:59Z</time>
  <cmt>extensions = 2.76 108.00</cmt>
    </trkpt>
    <trkpt lat="50.112039" lon="8.753716">
    <ele>99</ele>
    <time>2013-04-30T08:47:16Z</time>
  <cmt>extensions = 2.81 107.00</cmt>
    </trkpt>
    <trkpt lat="50.11213" lon="8.753846">
    <ele>99</ele>
    <time>2013-04-30T08:47:19Z</time>
  <cmt>extensions = 4.58 107.00</cmt>
    </trkpt>
    <trkpt lat="50.112171" lon="8.753974">
    <ele>99</ele>
    <time>2013-04-30T08:47:22Z</time>
  <cmt>extensions = 3.40 106.00</cmt>
    </trkpt>
    <trkpt lat="50.112677" lon="8.75412">
    <ele>99</ele>
    <time>2013-04-30T08:47:31Z</time>
  <cmt>extensions = 6.36 97.00</cmt>
    </trkpt>
    <trkpt lat="50.112756" lon="8.754268">
    <ele>99</ele>
    <time>2013-04-30T08:47:35Z</time>
  <cmt>extensions = 3.43 96.00</cmt>
    </trkpt>
    <trkpt lat="50.112537" lon="8.755673">
    <ele>98</ele>
    <time>2013-04-30T08:48:12Z</time>
  <cmt>extensions = 2.79 93.00</cmt>
    </trkpt>
    <trkpt lat="50.112356" lon="8.756538">
    <ele>98</ele>
    <time>2013-04-30T08:48:35Z</time>
  <cmt>extensions = 2.83 94.00</cmt>
    </trkpt>
    <trkpt lat="50.112251" lon="8.756848">
    <ele>97</ele>
    <time>2013-04-30T08:48:43Z</time>
  <cmt>extensions = 3.13 94.00</cmt>
    </trkpt>
    <trkpt lat="50.11224" lon="8.756863">
    <ele>97</ele>
    <time>2013-04-30T08:48:43Z</time>
  <cmt>extensions = 94.00</cmt>
    </trkpt>
    <trkpt lat="50.111971" lon="8.757421">
    <ele>97</ele>
    <time>2013-04-30T08:48:58Z</time>
  <cmt>extensions = 3.32 93.00</cmt>
    </trkpt>
    <trkpt lat="50.111756" lon="8.757703">
    <ele>97</ele>
    <time>2013-04-30T08:49:06Z</time>
  <cmt>extensions = 3.91 94.00</cmt>
    </trkpt>
    <trkpt lat="50.111673" lon="8.757862">
    <ele>97</ele>
    <time>2013-04-30T08:49:10Z</time>
  <cmt>extensions = 3.65 94.00</cmt>
    </trkpt>
    <trkpt lat="50.111601" lon="8.757944">
    <ele>97</ele>
    <time>2013-04-30T08:49:12Z</time>
  <cmt>extensions = 4.96 95.00</cmt>
    </trkpt>
    <trkpt lat="50.111354" lon="8.758249">
    <ele>98</ele>
    <time>2013-04-30T08:49:21Z</time>
  <cmt>extensions = 3.90 96.00</cmt>
    </trkpt>
    <trkpt lat="50.111039" lon="8.758838">
    <ele>98</ele>
    <time>2013-04-30T08:49:37Z</time>
  <cmt>extensions = 3.42 95.00</cmt>
    </trkpt>
    <trkpt lat="50.110451" lon="8.760128">
    <ele>99</ele>
    <time>2013-04-30T08:50:12Z</time>
  <cmt>extensions = 3.23 95.00</cmt>
    </trkpt>
    <trkpt lat="50.109667" lon="8.761845">
    <ele>99</ele>
    <time>2013-04-30T08:50:59Z</time>
  <cmt>extensions = 3.20 95.00</cmt>
    </trkpt>
    <trkpt lat="50.109272" lon="8.762398">
    <ele>99</ele>
    <time>2013-04-30T08:51:15Z</time>
  <cmt>extensions = 3.69 96.00</cmt>
    </trkpt>
    <trkpt lat="50.109042" lon="8.762973">
    <ele>98</ele>
    <time>2013-04-30T08:51:30Z</time>
  <cmt>extensions = 3.23 96.00</cmt>
    </trkpt>
    <trkpt lat="50.108333" lon="8.765085">
    <ele>97</ele>
    <time>2013-04-30T08:52:28Z</time>
  <cmt>extensions = 2.94 100.00</cmt>
    </trkpt>
    <trkpt lat="50.108333" lon="8.765085">
    <ele>97</ele>
    <time>2013-04-30T08:52:28Z</time>
  <cmt>extensions = 100.00</cmt>
    </trkpt>
    <trkpt lat="50.107908" lon="8.767196">
    <ele>99</ele>
    <time>2013-04-30T08:53:24Z</time>
  <cmt>extensions = 2.82 100.00</cmt>
    </trkpt>
    <trkpt lat="50.107447" lon="8.769651">
    <ele>101</ele>
    <time>2013-04-30T08:54:29Z</time>
  <cmt>extensions = 2.81 98.00</cmt>
    </trkpt>
    <trkpt lat="50.107359" lon="8.770909">
    <ele>102</ele>
    <time>2013-04-30T08:55:02Z</time>
  <cmt>extensions = 2.74 97.00</cmt>
    </trkpt>
    <trkpt lat="50.107368" lon="8.771809">
    <ele>102</ele>
    <time>2013-04-30T08:55:25Z</time>
  <cmt>extensions = 2.79 97.00</cmt>
    </trkpt>
    <trkpt lat="50.107473" lon="8.772931">
    <ele>101</ele>
    <time>2013-04-30T08:55:55Z</time>
  <cmt>extensions = 2.70 99.00</cmt>
    </trkpt>
    <trkpt lat="50.107848" lon="8.774536">
    <ele>100</ele>
    <time>2013-04-30T08:56:38Z</time>
  <cmt>extensions = 2.84 103.00</cmt>
    </trkpt>
    <trkpt lat="50.108332" lon="8.775795">
    <ele>99</ele>
    <time>2013-04-30T08:57:12Z</time>
  <cmt>extensions = 3.08 103.00</cmt>
    </trkpt>
    <trkpt lat="50.108747" lon="8.776833">
    <ele>98</ele>
    <time>2013-04-30T08:57:40Z</time>
  <cmt>extensions = 3.12 103.00</cmt>
    </trkpt>
    <trkpt lat="50.10917" lon="8.777621">
    <ele>98</ele>
    <time>2013-04-30T08:58:02Z</time>
  <cmt>extensions = 3.34 104.00</cmt>
    </trkpt>
    <trkpt lat="50.109667" lon="8.778592">
    <ele>98</ele>
    <time>2013-04-30T08:58:29Z</time>
  <cmt>extensions = 3.28 107.00</cmt>
    </trkpt>
    <trkpt lat="50.110312" lon="8.779949">
    <ele>98</ele>
    <time>2013-04-30T08:59:06Z</time>
  <cmt>extensions = 3.26 104.00</cmt>
    </trkpt>
    <trkpt lat="50.110472" lon="8.780501">
    <ele>98</ele>
    <time>2013-04-30T08:59:21Z</time>
  <cmt>extensions = 2.88 105.00</cmt>
    </trkpt>
    <trkpt lat="50.111654" lon="8.781392">
    <ele>97</ele>
    <time>2013-04-30T08:59:51Z</time>
  <cmt>extensions = 4.87 104.00</cmt>
    </trkpt>
    <trkpt lat="50.112638" lon="8.782095">
    <ele>96</ele>
    <time>2013-04-30T09:00:16Z</time>
  <cmt>extensions = 4.82 94.00</cmt>
    </trkpt>
    <trkpt lat="50.112638" lon="8.782095">
    <ele>96</ele>
    <time>2013-04-30T09:00:16Z</time>
  <cmt>extensions = 94.00</cmt>
    </trkpt>
    <trkpt lat="50.113226" lon="8.781859">
    <ele>97</ele>
    <time>2013-04-30T09:00:27Z</time>
  <cmt>extensions = 6.15 89.00</cmt>
    </trkpt>
    <trkpt lat="50.114098" lon="8.781766">
    <ele>97</ele>
    <time>2013-04-30T09:00:42Z</time>
  <cmt>extensions = 6.49 82.00</cmt>
    </trkpt>
    <trkpt lat="50.1154" lon="8.781546">
    <ele>97</ele>
    <time>2013-04-30T09:01:04Z</time>
  <cmt>extensions = 6.63 81.00</cmt>
    </trkpt>
    <trkpt lat="50.11702" lon="8.781112">
    <ele>97</ele>
    <time>2013-04-30T09:01:34Z</time>
  <cmt>extensions = 6.10 84.00</cmt>
    </trkpt>
    <trkpt lat="50.117302" lon="8.780878">
    <ele>97</ele>
    <time>2013-04-30T09:01:41Z</time>
  <cmt>extensions = 5.08 83.00</cmt>
    </trkpt>
    <trkpt lat="50.11733" lon="8.780634">
    <ele>97</ele>
    <time>2013-04-30T09:01:47Z</time>
  <cmt>extensions = 2.95 82.00</cmt>
    </trkpt>
    <trkpt lat="50.117921" lon="8.780209">
    <ele>97</ele>
    <time>2013-04-30T09:02:03Z</time>
  <cmt>extensions = 4.53 86.00</cmt>
    </trkpt>
    <trkpt lat="50.118257" lon="8.779926">
    <ele>96</ele>
    <time>2013-04-30T09:02:12Z</time>
  <cmt>extensions = 4.72 87.00</cmt>
    </trkpt>
    <trkpt lat="50.118823" lon="8.77945">
    <ele>96</ele>
    <time>2013-04-30T09:02:28Z</time>
  <cmt>extensions = 4.47 89.00</cmt>
    </trkpt>
    <trkpt lat="50.119625" lon="8.778313">
    <ele>96</ele>
    <time>2013-04-30T09:03:01Z</time>
  <cmt>extensions = 3.66 90.00</cmt>
    </trkpt>
    <trkpt lat="50.120619" lon="8.776857">
    <ele>97</ele>
    <time>2013-04-30T09:03:43Z</time>
  <cmt>extensions = 3.61 90.00</cmt>
    </trkpt>
    <trkpt lat="50.12149" lon="8.775836">
    <ele>97</ele>
    <time>2013-04-30T09:04:13Z</time>
  <cmt>extensions = 4.04 88.00</cmt>
    </trkpt>
    <trkpt lat="50.123174" lon="8.773896">
    <ele>98</ele>
    <time>2013-04-30T09:05:12Z</time>
  <cmt>extensions = 3.95 90.00</cmt>
    </trkpt>
    <trkpt lat="50.124459" lon="8.772579">
    <ele>98</ele>
    <time>2013-04-30T09:05:53Z</time>
  <cmt>extensions = 4.17 90.00</cmt>
    </trkpt>
    <trkpt lat="50.125226" lon="8.771842">
    <ele>98</ele>
    <time>2013-04-30T09:06:16Z</time>
  <cmt>extensions = 4.36 89.00</cmt>
    </trkpt>
    <trkpt lat="50.125854" lon="8.771336">
    <ele>98</ele>
    <time>2013-04-30T09:06:33Z</time>
  <cmt>extensions = 4.63 89.00</cmt>
    </trkpt>
    <trkpt lat="50.126954" lon="8.770494">
    <ele>99</ele>
    <time>2013-04-30T09:07:02Z</time>
  <cmt>extensions = 4.70 83.00</cmt>
    </trkpt>
    <trkpt lat="50.128143" lon="8.770033">
    <ele>99</ele>
    <time>2013-04-30T09:07:25Z</time>
  <cmt>extensions = 5.93 81.00</cmt>
    </trkpt>
    <trkpt lat="50.12921" lon="8.769788">
    <ele>99</ele>
    <time>2013-04-30T09:07:44Z</time>
  <cmt>extensions = 6.32 75.00</cmt>
    </trkpt>
    <trkpt lat="50.130951" lon="8.769757">
    <ele>99</ele>
    <time>2013-04-30T09:08:15Z</time>
  <cmt>extensions = 6.25 83.00</cmt>
    </trkpt>
    <trkpt lat="50.131805" lon="8.770112">
    <ele>99</ele>
    <time>2013-04-30T09:08:37Z</time>
  <cmt>extensions = 4.47 104.00</cmt>
    </trkpt>
    <trkpt lat="50.133096" lon="8.771013">
    <ele>99</ele>
    <time>2013-04-30T09:09:12Z</time>
  <cmt>extensions = 4.50 118.00</cmt>
    </trkpt>
    <trkpt lat="50.133806" lon="8.771779">
    <ele>99</ele>
    <time>2013-04-30T09:09:36Z</time>
  <cmt>extensions = 4.00 120.00</cmt>
    </trkpt>
    <trkpt lat="50.134317" lon="8.772343">
    <ele>99</ele>
    <time>2013-04-30T09:09:53Z</time>
  <cmt>extensions = 4.10 114.00</cmt>
    </trkpt>
    <trkpt lat="50.134833" lon="8.772981">
    <ele>99</ele>
    <time>2013-04-30T09:10:12Z</time>
  <cmt>extensions = 3.86 110.00</cmt>
    </trkpt>
    <trkpt lat="50.135214" lon="8.773817">
    <ele>98</ele>
    <time>2013-04-30T09:10:35Z</time>
  <cmt>extensions = 3.18 108.00</cmt>
    </trkpt>
    <trkpt lat="50.135208" lon="8.774308">
    <ele>98</ele>
    <time>2013-04-30T09:10:48Z</time>
  <cmt>extensions = 2.70 107.00</cmt>
    </trkpt>
    <trkpt lat="50.136103" lon="8.777167">
    <ele>99</ele>
    <time>2013-04-30T09:12:05Z</time>
  <cmt>extensions = 2.95 102.00</cmt>
    </trkpt>
    <trkpt lat="50.136461" lon="8.778758">
    <ele>100</ele>
    <time>2013-04-30T09:12:47Z</time>
  <cmt>extensions = 2.86 103.00</cmt>
    </trkpt>
    <trkpt lat="50.136539" lon="8.779912">
    <ele>100</ele>
    <time>2013-04-30T09:13:17Z</time>
  <cmt>extensions = 2.76 102.00</cmt>
    </trkpt>
    <trkpt lat="50.136682" lon="8.782407">
    <ele>99</ele>
    <time>2013-04-30T09:14:23Z</time>
  <cmt>extensions = 2.71 100.00</cmt>
    </trkpt>
    <trkpt lat="50.136317" lon="8.786876">
    <ele>97</ele>
    <time>2013-04-30T09:16:21Z</time>
  <cmt>extensions = 2.72 98.00</cmt>
    </trkpt>
    <trkpt lat="50.136067" lon="8.788155">
    <ele>97</ele>
    <time>2013-04-30T09:16:55Z</time>
  <cmt>extensions = 2.81 96.00</cmt>
    </trkpt>
    <trkpt lat="50.136013" lon="8.788478">
    <ele>97</ele>
    <time>2013-04-30T09:17:03Z</time>
  <cmt>extensions = 2.98 97.00</cmt>
    </trkpt>
    <trkpt lat="50.135763" lon="8.788657">
    <ele>97</ele>
    <time>2013-04-30T09:17:09Z</time>
  <cmt>extensions = 5.11 96.00</cmt>
    </trkpt>
    <trkpt lat="50.135302" lon="8.791118">
    <ele>98</ele>
    <time>2013-04-30T09:18:15Z</time>
  <cmt>extensions = 2.77 99.00</cmt>
    </trkpt>
    <trkpt lat="50.134961" lon="8.792736">
    <ele>98</ele>
    <time>2013-04-30T09:18:58Z</time>
  <cmt>extensions = 2.83 99.00</cmt>
    </trkpt>
    <trkpt lat="50.134394" lon="8.794643">
    <ele>99</ele>
    <time>2013-04-30T09:19:49Z</time>
  <cmt>extensions = 2.94 96.00</cmt>
    </trkpt>
    <trkpt lat="50.134354" lon="8.795111">
    <ele>99</ele>
    <time>2013-04-30T09:20:01Z</time>
  <cmt>extensions = 2.80 96.00</cmt>
    </trkpt>
    <trkpt lat="50.134708" lon="8.795421">
    <ele>100</ele>
    <time>2013-04-30T09:20:11Z</time>
  <cmt>extensions = 4.52 97.00</cmt>
    </trkpt>
    <trkpt lat="50.13435" lon="8.797046">
    <ele>100</ele>
    <time>2013-04-30T09:20:55Z</time>
  <cmt>extensions = 2.79 100.00</cmt>
    </trkpt>
    <trkpt lat="50.134354" lon="8.796974">
    <ele>100</ele>
    <time>2013-04-30T09:20:56Z</time>
  <cmt>extensions = 5.16 100.00</cmt>
    </trkpt>
    <trkpt lat="50.133956" lon="8.798903">
    <ele>100</ele>
    <time>2013-04-30T09:21:47Z</time>
  <cmt>extensions = 2.84 99.00</cmt>
    </trkpt>
    <trkpt lat="50.133825" lon="8.799643">
    <ele>100</ele>
    <time>2013-04-30T09:22:06Z</time>
  <cmt>extensions = 2.88 97.00</cmt>
    </trkpt>
    <trkpt lat="50.133825" lon="8.799643">
    <ele>100</ele>
    <time>2013-04-30T09:22:06Z</time>
  <cmt>extensions = 97.00</cmt>
    </trkpt>
    <trkpt lat="50.133775" lon="8.80016">
    <ele>100</ele>
    <time>2013-04-30T09:22:19Z</time>
  <cmt>extensions = 2.87 97.00</cmt>
    </trkpt>
    <trkpt lat="50.133523" lon="8.801229">
    <ele>100</ele>
    <time>2013-04-30T09:22:47Z</time>
  <cmt>extensions = 2.90 97.00</cmt>
    </trkpt>
    <trkpt lat="50.13366" lon="8.801306">
    <ele>100</ele>
    <time>2013-04-30T09:22:47Z</time>
  <cmt>extensions = 97.00</cmt>
    </trkpt>
    <trkpt lat="50.134873" lon="8.801814">
    <ele>99</ele>
    <time>2013-04-30T09:22:47Z</time>
  <cmt>extensions = 93.00</cmt>
    </trkpt>
    <trkpt lat="50.1349" lon="8.801792">
    <ele>99</ele>
    <time>2013-04-30T09:22:47Z</time>
  <cmt>extensions = 93.00</cmt>
    </trkpt>
    <trkpt lat="50.135988" lon="8.802241">
    <ele>98</ele>
    <time>2013-04-30T09:23:09Z</time>
  <cmt>extensions = 5.69 95.00</cmt>
    </trkpt>
    <trkpt lat="50.136185" lon="8.802384">
    <ele>98</ele>
    <time>2013-04-30T09:23:14Z</time>
  <cmt>extensions = 4.85 96.00</cmt>
    </trkpt>
    <trkpt lat="50.136185" lon="8.802384">
    <ele>98</ele>
    <time>2013-04-30T09:23:14Z</time>
  <cmt>extensions = 96.00</cmt>
    </trkpt>
    <trkpt lat="50.136144" lon="8.80264">
    <ele>98</ele>
    <time>2013-04-30T09:23:20Z</time>
  <cmt>extensions = 3.13 95.00</cmt>
    </trkpt>
    <trkpt lat="50.135474" lon="8.807025">
    <ele>99</ele>
    <time>2013-04-30T09:25:16Z</time>
  <cmt>extensions = 2.77 94.00</cmt>
    </trkpt>
    <trkpt lat="50.13495" lon="8.812694">
    <ele>100</ele>
    <time>2013-04-30T09:27:48Z</time>
  <cmt>extensions = 2.69 103.00</cmt>
    </trkpt>
    <trkpt lat="50.134264" lon="8.820347">
    <ele>99</ele>
    <time>2013-04-30T09:31:11Z</time>
  <cmt>extensions = 2.72 102.00</cmt>
    </trkpt>
    <trkpt lat="50.134209" lon="8.820847">
    <ele>99</ele>
    <time>2013-04-30T09:31:24Z</time>
  <cmt>extensions = 2.78 98.00</cmt>
    </trkpt>
    <trkpt lat="50.134209" lon="8.820847">
    <ele>99</ele>
    <time>2013-04-30T09:31:24Z</time>
  <cmt>extensions = 98.00</cmt>
    </trkpt>
    <trkpt lat="50.133289" lon="8.82573">
    <ele>100</ele>
    <time>2013-04-30T09:33:34Z</time>
  <cmt>extensions = 2.79 99.00</cmt>
    </trkpt>
    <trkpt lat="50.131584" lon="8.832933">
    <ele>101</ele>
    <time>2013-04-30T09:36:47Z</time>
  <cmt>extensions = 2.84 95.00</cmt>
    </trkpt>
    <trkpt lat="50.130813" lon="8.836974">
    <ele>102</ele>
    <time>2013-04-30T09:38:35Z</time>
  <cmt>extensions = 2.79 97.00</cmt>
    </trkpt>
    <trkpt lat="50.130788" lon="8.836953">
    <ele>102</ele>
    <time>2013-04-30T09:38:35Z</time>
  <cmt>extensions = 97.00</cmt>
    </trkpt>
    <trkpt lat="50.13073" lon="8.837937">
    <ele>102</ele>
    <time>2013-04-30T09:39:01Z</time>
  <cmt>extensions = 2.71 99.00</cmt>
    </trkpt>
    <trkpt lat="50.130672" lon="8.839726">
    <ele>102</ele>
    <time>2013-04-30T09:39:49Z</time>
  <cmt>extensions = 2.66 103.00</cmt>
    </trkpt>
    <trkpt lat="50.13055" lon="8.841942">
    <ele>102</ele>
    <time>2013-04-30T09:40:47Z</time>
  <cmt>extensions = 2.74 100.00</cmt>
    </trkpt>
    <trkpt lat="50.13055" lon="8.841942">
    <ele>102</ele>
    <time>2013-04-30T09:40:47Z</time>
  <cmt>extensions = 100.00</cmt>
    </trkpt>
    <trkpt lat="50.130366" lon="8.84369">
    <ele>102</ele>
    <time>2013-04-30T09:41:33Z</time>
  <cmt>extensions = 2.75 98.00</cmt>
    </trkpt>
    <trkpt lat="50.129999" lon="8.845912">
    <ele>102</ele>
    <time>2013-04-30T09:42:32Z</time>
  <cmt>extensions = 2.78 98.00</cmt>
    </trkpt>
    <trkpt lat="50.129657" lon="8.846691">
    <ele>102</ele>
    <time>2013-04-30T09:42:53Z</time>
  <cmt>extensions = 3.21 100.00</cmt>
    </trkpt>
    <trkpt lat="50.129359" lon="8.848108">
    <ele>101</ele>
    <time>2013-04-30T09:43:31Z</time>
  <cmt>extensions = 2.80 101.00</cmt>
    </trkpt>
    <trkpt lat="50.129038" lon="8.848809">
    <ele>101</ele>
    <time>2013-04-30T09:43:50Z</time>
  <cmt>extensions = 3.23 100.00</cmt>
    </trkpt>
    <trkpt lat="50.128617" lon="8.851174">
    <ele>100</ele>
    <time>2013-04-30T09:44:53Z</time>
  <cmt>extensions = 2.78 100.00</cmt>
    </trkpt>
    <trkpt lat="50.127315" lon="8.857422">
    <ele>97</ele>
    <time>2013-04-30T09:47:40Z</time>
  <cmt>extensions = 2.81 94.00</cmt>
    </trkpt>
    <trkpt lat="50.127091" lon="8.8604">
    <ele>97</ele>
    <time>2013-04-30T09:48:59Z</time>
  <cmt>extensions = 2.71 96.00</cmt>
    </trkpt>
    <trkpt lat="50.126979" lon="8.86508">
    <ele>97</ele>
    <time>2013-04-30T09:51:03Z</time>
  <cmt>extensions = 2.70 99.00</cmt>
    </trkpt>
    <trkpt lat="50.126901" lon="8.867986">
    <ele>98</ele>
    <time>2013-04-30T09:52:20Z</time>
  <cmt>extensions = 2.70 98.00</cmt>
    </trkpt>
    <trkpt lat="50.126955" lon="8.869576">
    <ele>99</ele>
    <time>2013-04-30T09:53:02Z</time>
  <cmt>extensions = 2.70 98.00</cmt>
    </trkpt>
    <trkpt lat="50.126899" lon="8.870595">
    <ele>100</ele>
    <time>2013-04-30T09:53:29Z</time>
  <cmt>extensions = 2.70 98.00</cmt>
    </trkpt>
    <trkpt lat="50.126906" lon="8.87066">
    <ele>100</ele>
    <time>2013-04-30T09:53:30Z</time>
  <cmt>extensions = 4.67 98.00</cmt>
    </trkpt>
    <trkpt lat="50.126935" lon="8.870984">
    <ele>101</ele>
    <time>2013-04-30T09:53:38Z</time>
  <cmt>extensions = 2.92 97.00</cmt>
    </trkpt>
    <trkpt lat="50.126949" lon="8.871503">
    <ele>101</ele>
    <time>2013-04-30T09:53:51Z</time>
  <cmt>extensions = 2.85 97.00</cmt>
    </trkpt>
    <trkpt lat="50.126962" lon="8.871781">
    <ele>102</ele>
    <time>2013-04-30T09:53:58Z</time>
  <cmt>extensions = 2.84 97.00</cmt>
    </trkpt>
    <trkpt lat="50.126794" lon="8.872086">
    <ele>102</ele>
    <time>2013-04-30T09:54:06Z</time>
  <cmt>extensions = 3.59 98.00</cmt>
    </trkpt>
    <trkpt lat="50.126663" lon="8.872728">
    <ele>102</ele>
    <time>2013-04-30T09:54:23Z</time>
  <cmt>extensions = 2.83 99.00</cmt>
    </trkpt>
    <trkpt lat="50.126477" lon="8.874923">
    <ele>101</ele>
    <time>2013-04-30T09:55:21Z</time>
  <cmt>extensions = 2.72 96.00</cmt>
    </trkpt>
    <trkpt lat="50.126223" lon="8.877828">
    <ele>100</ele>
    <time>2013-04-30T09:56:38Z</time>
  <cmt>extensions = 2.72 98.00</cmt>
    </trkpt>
    <trkpt lat="50.125851" lon="8.88109">
    <ele>101</ele>
    <time>2013-04-30T09:58:04Z</time>
  <cmt>extensions = 2.75 98.00</cmt>
    </trkpt>
    <trkpt lat="50.125591" lon="8.883444">
    <ele>101</ele>
    <time>2013-04-30T09:59:06Z</time>
  <cmt>extensions = 2.75 97.00</cmt>
    </trkpt>
    <trkpt lat="50.125368" lon="8.88553">
    <ele>101</ele>
    <time>2013-04-30T10:00:01Z</time>
  <cmt>extensions = 2.74 99.00</cmt>
    </trkpt>
    <trkpt lat="50.125366" lon="8.886327">
    <ele>102</ele>
    <time>2013-04-30T10:00:22Z</time>
  <cmt>extensions = 2.71 98.00</cmt>
    </trkpt>
    <trkpt lat="50.125349" lon="8.887215">
    <ele>103</ele>
    <time>2013-04-30T10:00:45Z</time>
  <cmt>extensions = 2.76 99.00</cmt>
    </trkpt>
    <trkpt lat="50.125524" lon="8.888613">
    <ele>104</ele>
    <time>2013-04-30T10:01:22Z</time>
  <cmt>extensions = 2.75 101.00</cmt>
    </trkpt>
    <trkpt lat="50.126044" lon="8.890843">
    <ele>105</ele>
    <time>2013-04-30T10:02:23Z</time>
  <cmt>extensions = 2.78 107.00</cmt>
    </trkpt>
    <trkpt lat="50.126547" lon="8.892778">
    <ele>105</ele>
    <time>2013-04-30T10:03:14Z</time>
  <cmt>extensions = 2.92 106.00</cmt>
    </trkpt>
    <trkpt lat="50.126721" lon="8.89345">
    <ele>106</ele>
    <time>2013-04-30T10:03:32Z</time>
  <cmt>extensions = 2.87 107.00</cmt>
    </trkpt>
    <trkpt lat="50.127183" lon="8.894343">
    <ele>106</ele>
    <time>2013-04-30T10:03:56Z</time>
  <cmt>extensions = 3.41 107.00</cmt>
    </trkpt>
    <trkpt lat="50.12729" lon="8.894435">
    <ele>106</ele>
    <time>2013-04-30T10:03:59Z</time>
  <cmt>extensions = 4.55 108.00</cmt>
    </trkpt>
    <trkpt lat="50.127221" lon="8.894531">
    <ele>106</ele>
    <time>2013-04-30T10:04:01Z</time>
  <cmt>extensions = 5.17 107.00</cmt>
    </trkpt>
    <trkpt lat="50.128229" lon="8.896174">
    <ele>106</ele>
    <time>2013-04-30T10:04:48Z</time>
  <cmt>extensions = 3.45 109.00</cmt>
    </trkpt>
    <trkpt lat="50.128397" lon="8.895845">
    <ele>107</ele>
    <time>2013-04-30T10:04:57Z</time>
  <cmt>extensions = 3.33 111.00</cmt>
    </trkpt>
    <trkpt lat="50.128693" lon="8.897123">
    <ele>106</ele>
    <time>2013-04-30T10:05:31Z</time>
  <cmt>extensions = 2.85 108.00</cmt>
    </trkpt>
    <trkpt lat="50.128966" lon="8.89827">
    <ele>106</ele>
    <time>2013-04-30T10:06:01Z</time>
  <cmt>extensions = 2.91 109.00</cmt>
    </trkpt>
    <trkpt lat="50.129031" lon="8.898237">
    <ele>106</ele>
    <time>2013-04-30T10:06:02Z</time>
  <cmt>extensions = 7.55 109.00</cmt>
    </trkpt>
    <trkpt lat="50.129392" lon="8.899843">
    <ele>106</ele>
    <time>2013-04-30T10:06:44Z</time>
  <cmt>extensions = 2.89 107.00</cmt>
    </trkpt>
    <trkpt lat="50.129814" lon="8.901613">
    <ele>107</ele>
    <time>2013-04-30T10:07:31Z</time>
  <cmt>extensions = 2.87 108.00</cmt>
    </trkpt>
    <trkpt lat="50.130068" lon="8.902661">
    <ele>107</ele>
    <time>2013-04-30T10:07:59Z</time>
  <cmt>extensions = 2.86 105.00</cmt>
    </trkpt>
    <trkpt lat="50.129882" lon="8.902675">
    <ele>107</ele>
    <time>2013-04-30T10:08:02Z</time>
  <cmt>extensions = 6.91 104.00</cmt>
    </trkpt>
    <trkpt lat="50.129701" lon="8.903278">
    <ele>107</ele>
    <time>2013-04-30T10:08:18Z</time>
  <cmt>extensions = 2.97 101.00</cmt>
    </trkpt>
    <trkpt lat="50.129593" lon="8.903848">
    <ele>106</ele>
    <time>2013-04-30T10:08:33Z</time>
  <cmt>extensions = 2.83 100.00</cmt>
    </trkpt>
    <trkpt lat="50.129555" lon="8.904231">
    <ele>106</ele>
    <time>2013-04-30T10:08:43Z</time>
  <cmt>extensions = 2.76 99.00</cmt>
    </trkpt>
    <trkpt lat="50.129416" lon="8.904794">
    <ele>105</ele>
    <time>2013-04-30T10:08:58Z</time>
  <cmt>extensions = 2.87 97.00</cmt>
    </trkpt>
    <trkpt lat="50.129183" lon="8.905352">
    <ele>104</ele>
    <time>2013-04-30T10:09:13Z</time>
  <cmt>extensions = 3.17 97.00</cmt>
    </trkpt>
    <trkpt lat="50.129061" lon="8.905598">
    <ele>103</ele>
    <time>2013-04-30T10:09:20Z</time>
  <cmt>extensions = 3.17 98.00</cmt>
    </trkpt>
    <trkpt lat="50.12899" lon="8.905919">
    <ele>103</ele>
    <time>2013-04-30T10:09:29Z</time>
  <cmt>extensions = 2.69 100.00</cmt>
    </trkpt>
    <trkpt lat="50.12909" lon="8.906214">
    <ele>103</ele>
    <time>2013-04-30T10:09:37Z</time>
  <cmt>extensions = 2.97 101.00</cmt>
    </trkpt>
    <trkpt lat="50.129278" lon="8.906516">
    <ele>103</ele>
    <time>2013-04-30T10:09:46Z</time>
  <cmt>extensions = 3.33 103.00</cmt>
    </trkpt>
    <trkpt lat="50.12951" lon="8.906661">
    <ele>103</ele>
    <time>2013-04-30T10:09:51Z</time>
  <cmt>extensions = 5.57 104.00</cmt>
    </trkpt>
    <trkpt lat="50.129463" lon="8.90667">
    <ele>103</ele>
    <time>2013-04-30T10:09:51Z</time>
  <cmt>extensions = 104.00</cmt>
    </trkpt>
    <trkpt lat="50.129622" lon="8.906892">
    <ele>103</ele>
    <time>2013-04-30T10:09:57Z</time>
  <cmt>extensions = 3.96 106.00</cmt>
    </trkpt>
    <trkpt lat="50.130018" lon="8.907305">
    <ele>103</ele>
    <time>2013-04-30T10:10:11Z</time>
  <cmt>extensions = 3.79 111.00</cmt>
    </trkpt>
    <trkpt lat="50.130611" lon="8.90794">
    <ele>103</ele>
    <time>2013-04-30T10:10:30Z</time>
  <cmt>extensions = 4.21 111.00</cmt>
    </trkpt>
    <trkpt lat="50.131099" lon="8.908419">
    <ele>102</ele>
    <time>2013-04-30T10:10:45Z</time>
  <cmt>extensions = 4.28 109.00</cmt>
    </trkpt>
    <trkpt lat="50.131058" lon="8.908397">
    <ele>102</ele>
    <time>2013-04-30T10:10:45Z</time>
  <cmt>extensions = 109.00</cmt>
    </trkpt>
    <trkpt lat="50.131274" lon="8.908661">
    <ele>102</ele>
    <time>2013-04-30T10:10:52Z</time>
  <cmt>extensions = 4.36 108.00</cmt>
    </trkpt>
    <trkpt lat="50.131436" lon="8.908908">
    <ele>102</ele>
    <time>2013-04-30T10:10:59Z</time>
  <cmt>extensions = 3.60 107.00</cmt>
    </trkpt>
    <trkpt lat="50.131683" lon="8.908591">
    <ele>102</ele>
    <time>2013-04-30T10:11:08Z</time>
  <cmt>extensions = 3.96 105.00</cmt>
    </trkpt>
    <trkpt lat="50.131921" lon="8.908035">
    <ele>103</ele>
    <time>2013-04-30T10:11:23Z</time>
  <cmt>extensions = 3.18 105.00</cmt>
    </trkpt>
    <trkpt lat="50.131938" lon="8.908016">
    <ele>103</ele>
    <time>2013-04-30T10:11:23Z</time>
  <cmt>extensions = 105.00</cmt>
    </trkpt>
    <trkpt lat="50.132749" lon="8.906746">
    <ele>103</ele>
    <time>2013-04-30T10:11:59Z</time>
  <cmt>extensions = 3.55 105.00</cmt>
    </trkpt>
    <trkpt lat="50.132749" lon="8.906736">
    <ele>103</ele>
    <time>2013-04-30T10:11:59Z</time>
  <cmt>extensions = 105.00</cmt>
    </trkpt>
    <trkpt lat="50.133004" lon="8.906407">
    <ele>104</ele>
    <time>2013-04-30T10:12:08Z</time>
  <cmt>extensions = 4.09 105.00</cmt>
    </trkpt>
    <trkpt lat="50.133265" lon="8.905974">
    <ele>104</ele>
    <time>2013-04-30T10:12:21Z</time>
  <cmt>extensions = 3.27 110.00</cmt>
    </trkpt>
    <trkpt lat="50.133271" lon="8.905928">
    <ele>104</ele>
    <time>2013-04-30T10:12:22Z</time>
  <cmt>extensions = 3.33 111.00</cmt>
    </trkpt>
    <trkpt lat="50.133571" lon="8.905428">
    <ele>103</ele>
    <time>2013-04-30T10:12:36Z</time>
  <cmt>extensions = 3.49 110.00</cmt>
    </trkpt>
    <trkpt lat="50.13379" lon="8.905149">
    <ele>103</ele>
    <time>2013-04-30T10:12:44Z</time>
  <cmt>extensions = 3.94 105.00</cmt>
    </trkpt>
    <trkpt lat="50.133929" lon="8.904859">
    <ele>103</ele>
    <time>2013-04-30T10:12:52Z</time>
  <cmt>extensions = 3.23 101.00</cmt>
    </trkpt>
    <trkpt lat="50.133925" lon="8.904447">
    <ele>103</ele>
    <time>2013-04-30T10:13:02Z</time>
  <cmt>extensions = 2.94 98.00</cmt>
    </trkpt>
    <trkpt lat="50.133722" lon="8.904716">
    <ele>102</ele>
    <time>2013-04-30T10:13:10Z</time>
  <cmt>extensions = 3.71 101.00</cmt>
    </trkpt>
    <trkpt lat="50.133754" lon="8.904832">
    <ele>102</ele>
    <time>2013-04-30T10:13:13Z</time>
  <cmt>extensions = 2.99 103.00</cmt>
    </trkpt>
    <trkpt lat="50.133759" lon="8.904928">
    <ele>102</ele>
    <time>2013-04-30T10:13:15Z</time>
  <cmt>extensions = 3.45 103.00</cmt>
    </trkpt>
    <trkpt lat="50.134119" lon="8.905587">
    <ele>102</ele>
    <time>2013-04-30T10:13:33Z</time>
  <cmt>extensions = 3.43 105.00</cmt>
    </trkpt>
    <trkpt lat="50.134156" lon="8.905686">
    <ele>102</ele>
    <time>2013-04-30T10:13:35Z</time>
  <cmt>extensions = 4.07 106.00</cmt>
    </trkpt>
    <trkpt lat="50.134654" lon="8.906106">
    <ele>103</ele>
    <time>2013-04-30T10:13:48Z</time>
  <cmt>extensions = 4.85 103.00</cmt>
    </trkpt>
    <trkpt lat="50.135212" lon="8.90639">
    <ele>103</ele>
    <time>2013-04-30T10:14:00Z</time>
  <cmt>extensions = 5.44 102.00</cmt>
    </trkpt>
    <trkpt lat="50.135689" lon="8.906581">
    <ele>103</ele>
    <time>2013-04-30T10:14:09Z</time>
  <cmt>extensions = 6.10 102.00</cmt>
    </trkpt>
    <trkpt lat="50.136067" lon="8.906706">
    <ele>103</ele>
    <time>2013-04-30T10:14:16Z</time>
  <cmt>extensions = 6.14 102.00</cmt>
    </trkpt>
    <trkpt lat="50.136364" lon="8.90699">
    <ele>103</ele>
    <time>2013-04-30T10:14:25Z</time>
  <cmt>extensions = 4.31 102.00</cmt>
    </trkpt>
    <trkpt lat="50.136763" lon="8.907353">
    <ele>103</ele>
    <time>2013-04-30T10:14:36Z</time>
  <cmt>extensions = 4.67 101.00</cmt>
    </trkpt>
    <trkpt lat="50.137052" lon="8.907863">
    <ele>103</ele>
    <time>2013-04-30T10:14:50Z</time>
  <cmt>extensions = 3.47 101.00</cmt>
    </trkpt>
    <trkpt lat="50.137597" lon="8.908424">
    <ele>104</ele>
    <time>2013-04-30T10:15:09Z</time>
  <cmt>extensions = 3.83 109.00</cmt>
    </trkpt>
    <trkpt lat="50.137963" lon="8.909416">
    <ele>105</ele>
    <time>2013-04-30T10:15:36Z</time>
  <cmt>extensions = 3.02 112.00</cmt>
    </trkpt>
    <trkpt lat="50.138183" lon="8.909535">
    <ele>105</ele>
    <time>2013-04-30T10:15:40Z</time>
  <cmt>extensions = 6.48 112.00</cmt>
    </trkpt>
    <trkpt lat="50.138367" lon="8.909517">
    <ele>105</ele>
    <time>2013-04-30T10:15:43Z</time>
  <cmt>extensions = 6.82 111.00</cmt>
    </trkpt>
    <trkpt lat="50.138638" lon="8.909534">
    <ele>105</ele>
    <time>2013-04-30T10:15:47Z</time>
  <cmt>extensions = 7.55 110.00</cmt>
    </trkpt>
    <trkpt lat="50.138942" lon="8.909453">
    <ele>105</ele>
    <time>2013-04-30T10:15:52Z</time>
  <cmt>extensions = 6.87 108.00</cmt>
    </trkpt>
    <trkpt lat="50.139061" lon="8.909806">
    <ele>105</ele>
    <time>2013-04-30T10:16:01Z</time>
  <cmt>extensions = 3.17 107.00</cmt>
    </trkpt>
    <trkpt lat="50.139029" lon="8.909935">
    <ele>105</ele>
    <time>2013-04-30T10:16:04Z</time>
  <cmt>extensions = 3.27 107.00</cmt>
    </trkpt>
    <trkpt lat="50.138808" lon="8.910419">
    <ele>105</ele>
    <time>2013-04-30T10:16:17Z</time>
  <cmt>extensions = 3.26 109.00</cmt>
    </trkpt>
    <trkpt lat="50.13866" lon="8.910712">
    <ele>105</ele>
    <time>2013-04-30T10:16:25Z</time>
  <cmt>extensions = 3.33 109.00</cmt>
    </trkpt>
    <trkpt lat="50.138487" lon="8.911131">
    <ele>106</ele>
    <time>2013-04-30T10:16:37Z</time>
  <cmt>extensions = 2.96 112.00</cmt>
    </trkpt>
    <trkpt lat="50.138305" lon="8.910989">
    <ele>106</ele>
    <time>2013-04-30T10:16:42Z</time>
  <cmt>extensions = 4.51 113.00</cmt>
    </trkpt>
    <trkpt lat="50.138104" lon="8.910661">
    <ele>106</ele>
    <time>2013-04-30T10:16:51Z</time>
  <cmt>extensions = 3.60 114.00</cmt>
    </trkpt>
    <trkpt lat="50.138201" lon="8.910428">
    <ele>106</ele>
    <time>2013-04-30T10:16:57Z</time>
  <cmt>extensions = 3.31 115.00</cmt>
    </trkpt>
    <trkpt lat="50.138295" lon="8.910491">
    <ele>106</ele>
    <time>2013-04-30T10:16:59Z</time>
  <cmt>extensions = 5.70 115.00</cmt>
    </trkpt>
    <trkpt lat="50.138322" lon="8.910496">
    <ele>106</ele>
    <time>2013-04-30T10:16:59Z</time>
  <cmt>extensions = 115.00</cmt>
    </trkpt>
    <trkpt lat="50.138657" lon="8.910864">
    <ele>105</ele>
    <time>2013-04-30T10:17:10Z</time>
  <cmt>extensions = 4.14 110.00</cmt>
    </trkpt>
    <trkpt lat="50.138878" lon="8.911217">
    <ele>105</ele>
    <time>2013-04-30T10:17:20Z</time>
  <cmt>extensions = 3.52 110.00</cmt>
    </trkpt>
    <trkpt lat="50.138886" lon="8.911354">
    <ele>105</ele>
    <time>2013-04-30T10:17:23Z</time>
  <cmt>extensions = 3.27 111.00</cmt>
    </trkpt>
    <trkpt lat="50.138836" lon="8.911507">
    <ele>105</ele>
    <time>2013-04-30T10:17:27Z</time>
  <cmt>extensions = 3.06 111.00</cmt>
    </trkpt>
    <trkpt lat="50.138927" lon="8.911793">
    <ele>105</ele>
    <time>2013-04-30T10:17:34Z</time>
  <cmt>extensions = 3.25 109.00</cmt>
    </trkpt>
    <trkpt lat="50.139054" lon="8.912416">
    <ele>105</ele>
    <time>2013-04-30T10:17:50Z</time>
  <cmt>extensions = 2.91 108.00</cmt>
    </trkpt>
    <trkpt lat="50.139211" lon="8.913214">
    <ele>106</ele>
    <time>2013-04-30T10:18:12Z</time>
  <cmt>extensions = 2.71 111.00</cmt>
    </trkpt>
    <trkpt lat="50.139432" lon="8.913807">
    <ele>106</ele>
    <time>2013-04-30T10:18:28Z</time>
  <cmt>extensions = 3.06 113.00</cmt>
    </trkpt>
    <trkpt lat="50.139723" lon="8.914114">
    <ele>106</ele>
    <time>2013-04-30T10:18:37Z</time>
  <cmt>extensions = 4.34 112.00</cmt>
    </trkpt>
    <trkpt lat="50.139549" lon="8.9144">
    <ele>107</ele>
    <time>2013-04-30T10:18:45Z</time>
  <cmt>extensions = 3.51 111.00</cmt>
    </trkpt>
    <trkpt lat="50.139393" lon="8.914723">
    <ele>107</ele>
    <time>2013-04-30T10:18:53Z</time>
  <cmt>extensions = 3.60 109.00</cmt>
    </trkpt>
    <trkpt lat="50.139099" lon="8.915401">
    <ele>106</ele>
    <time>2013-04-30T10:19:11Z</time>
  <cmt>extensions = 3.25 108.00</cmt>
    </trkpt>
    <trkpt lat="50.13908" lon="8.915482">
    <ele>106</ele>
    <time>2013-04-30T10:19:13Z</time>
  <cmt>extensions = 3.05 108.00</cmt>
    </trkpt>
    <trkpt lat="50.139439" lon="8.916037">
    <ele>106</ele>
    <time>2013-04-30T10:19:29Z</time>
  <cmt>extensions = 3.52 111.00</cmt>
    </trkpt>
    <trkpt lat="50.139819" lon="8.916663">
    <ele>107</ele>
    <time>2013-04-30T10:19:46Z</time>
  <cmt>extensions = 3.62 111.00</cmt>
    </trkpt>
    <trkpt lat="50.139827" lon="8.916782">
    <ele>107</ele>
    <time>2013-04-30T10:19:49Z</time>
  <cmt>extensions = 2.85 112.00</cmt>
    </trkpt>
    <trkpt lat="50.139147" lon="8.917474">
    <ele>108</ele>
    <time>2013-04-30T10:20:10Z</time>
  <cmt>extensions = 4.30 112.00</cmt>
    </trkpt>
    <trkpt lat="50.138731" lon="8.917829">
    <ele>108</ele>
    <time>2013-04-30T10:20:21Z</time>
  <cmt>extensions = 4.81 108.00</cmt>
    </trkpt>
    <trkpt lat="50.138598" lon="8.917954">
    <ele>108</ele>
    <time>2013-04-30T10:20:24Z</time>
  <cmt>extensions = 5.73 108.00</cmt>
    </trkpt>
    <trkpt lat="50.138418" lon="8.918073">
    <ele>108</ele>
    <time>2013-04-30T10:20:28Z</time>
  <cmt>extensions = 5.44 109.00</cmt>
    </trkpt>
    <trkpt lat="50.138316" lon="8.918104">
    <ele>108</ele>
    <time>2013-04-30T10:20:32Z</time>
  <cmt>extensions = 2.91 111.00</cmt>
    </trkpt>
    <trkpt lat="50.138133" lon="8.918062">
    <ele>107</ele>
    <time>2013-04-30T10:20:37Z</time>
  <cmt>extensions = 4.13 112.00</cmt>
    </trkpt>
    <trkpt lat="50.137876" lon="8.918044">
    <ele>107</ele>
    <time>2013-04-30T10:20:44Z</time>
  <cmt>extensions = 4.08 112.00</cmt>
    </trkpt>
    <trkpt lat="50.137841" lon="8.918419">
    <ele>107</ele>
    <time>2013-04-30T10:21:01Z</time>
  <cmt>extensions = 1.59 113.00</cmt>
    </trkpt>
    <trkpt lat="50.137838" lon="8.918732">
    <ele>107</ele>
    <time>2013-04-30T10:21:14Z</time>
  <cmt>extensions = 1.72 113.00</cmt>
    </trkpt>
    <trkpt lat="50.137838" lon="8.918732">
    <ele>107</ele>
    <time>2013-04-30T10:21:14Z</time>
  <cmt>extensions = 113.00</cmt>
    </trkpt>
    <trkpt lat="50.137814" lon="8.918976">
    <ele>107</ele>
    <time>2013-04-30T10:21:20Z</time>
  <cmt>extensions = 2.93 113.00</cmt>
    </trkpt>
    <trkpt lat="50.137623" lon="8.919052">
    <ele>107</ele>
    <time>2013-04-30T10:21:23Z</time>
  <cmt>extensions = 7.31 113.00</cmt>
    </trkpt>
    <trkpt lat="50.137571" lon="8.919517">
    <ele>107</ele>
    <time>2013-04-30T10:21:35Z</time>
  <cmt>extensions = 2.81 114.00</cmt>
    </trkpt>
    <trkpt lat="50.137558" lon="8.919884">
    <ele>107</ele>
    <time>2013-04-30T10:21:44Z</time>
  <cmt>extensions = 2.91 114.00</cmt>
    </trkpt>
    <trkpt lat="50.137522" lon="8.920374">
    <ele>107</ele>
    <time>2013-04-30T10:21:57Z</time>
  <cmt>extensions = 2.71 112.00</cmt>
    </trkpt>
    <trkpt lat="50.137357" lon="8.920677">
    <ele>107</ele>
    <time>2013-04-30T10:22:05Z</time>
  <cmt>extensions = 3.54 112.00</cmt>
    </trkpt>
    <trkpt lat="50.137319" lon="8.921059">
    <ele>107</ele>
    <time>2013-04-30T10:22:15Z</time>
  <cmt>extensions = 2.76 111.00</cmt>
    </trkpt>
    <trkpt lat="50.137346" lon="8.92165">
    <ele>107</ele>
    <time>2013-04-30T10:22:30Z</time>
  <cmt>extensions = 2.82 109.00</cmt>
    </trkpt>
    <trkpt lat="50.137391" lon="8.92229">
    <ele>107</ele>
    <time>2013-04-30T10:22:46Z</time>
  <cmt>extensions = 2.87 109.00</cmt>
    </trkpt>
    <trkpt lat="50.137359" lon="8.923175">
    <ele>107</ele>
    <time>2013-04-30T10:23:09Z</time>
  <cmt>extensions = 2.75 108.00</cmt>
    </trkpt>
    <trkpt lat="50.137333" lon="8.923446">
    <ele>107</ele>
    <time>2013-04-30T10:23:16Z</time>
  <cmt>extensions = 2.79 106.00</cmt>
    </trkpt>
    <trkpt lat="50.137202" lon="8.92359">
    <ele>107</ele>
    <time>2013-04-30T10:23:20Z</time>
  <cmt>extensions = 4.46 106.00</cmt>
    </trkpt>
    <trkpt lat="50.13691" lon="8.923672">
    <ele>107</ele>
    <time>2013-04-30T10:23:25Z</time>
  <cmt>extensions = 6.60 106.00</cmt>
    </trkpt>
    <trkpt lat="50.136531" lon="8.92393">
    <ele>107</ele>
    <time>2013-04-30T10:23:34Z</time>
  <cmt>extensions = 5.11 106.00</cmt>
    </trkpt>
    <trkpt lat="50.136152" lon="8.924259">
    <ele>107</ele>
    <time>2013-04-30T10:23:44Z</time>
  <cmt>extensions = 4.83 106.00</cmt>
    </trkpt>
    <trkpt lat="50.135984" lon="8.924554">
    <ele>107</ele>
    <time>2013-04-30T10:23:52Z</time>
  <cmt>extensions = 3.52 107.00</cmt>
    </trkpt>
    <trkpt lat="50.136068" lon="8.924653">
    <ele>107</ele>
    <time>2013-04-30T10:23:54Z</time>
  <cmt>extensions = 5.87 106.00</cmt>
    </trkpt>
    <trkpt lat="50.136068" lon="8.924685">
    <ele>107</ele>
    <time>2013-04-30T10:23:54Z</time>
  <cmt>extensions = 105.00</cmt>
    </trkpt>
    <trkpt lat="50.136765" lon="8.925535">
    <ele>105</ele>
    <time>2013-04-30T10:24:19Z</time>
  <cmt>extensions = 3.94 95.00</cmt>
    </trkpt>
    <trkpt lat="50.136903" lon="8.92573">
    <ele>104</ele>
    <time>2013-04-30T10:24:24Z</time>
  <cmt>extensions = 4.14 95.00</cmt>
    </trkpt>
    <trkpt lat="50.136673" lon="8.926222">
    <ele>104</ele>
    <time>2013-04-30T10:24:38Z</time>
  <cmt>extensions = 3.10 97.00</cmt>
    </trkpt>
    <trkpt lat="50.136432" lon="8.92676">
    <ele>105</ele>
    <time>2013-04-30T10:24:53Z</time>
  <cmt>extensions = 3.13 99.00</cmt>
    </trkpt>
    <trkpt lat="50.136324" lon="8.927086">
    <ele>105</ele>
    <time>2013-04-30T10:25:01Z</time>
  <cmt>extensions = 3.27 99.00</cmt>
    </trkpt>
    <trkpt lat="50.136307" lon="8.927349">
    <ele>106</ele>
    <time>2013-04-30T10:25:08Z</time>
  <cmt>extensions = 2.69 100.00</cmt>
    </trkpt>
    <trkpt lat="50.136308" lon="8.927355">
    <ele>106</ele>
    <time>2013-04-30T10:25:08Z</time>
  <cmt>extensions = 100.00</cmt>
    </trkpt>
    <trkpt lat="50.136258" lon="8.927793">
    <ele>106</ele>
    <time>2013-04-30T10:25:19Z</time>
  <cmt>extensions = 2.88 99.00</cmt>
    </trkpt>
    <trkpt lat="50.136274" lon="8.927789">
    <ele>106</ele>
    <time>2013-04-30T10:25:19Z</time>
  <cmt>extensions = 99.00</cmt>
    </trkpt>
    <trkpt lat="50.136179" lon="8.928165">
    <ele>106</ele>
    <time>2013-04-30T10:25:29Z</time>
  <cmt>extensions = 2.89 99.00</cmt>
    </trkpt>
    <trkpt lat="50.136186" lon="8.928531">
    <ele>106</ele>
    <time>2013-04-30T10:25:38Z</time>
  <cmt>extensions = 2.90 100.00</cmt>
    </trkpt>
    <trkpt lat="50.13619" lon="8.928926">
    <ele>106</ele>
    <time>2013-04-30T10:25:48Z</time>
  <cmt>extensions = 2.81 101.00</cmt>
    </trkpt>
    <trkpt lat="50.135963" lon="8.929695">
    <ele>105</ele>
    <time>2013-04-30T10:26:08Z</time>
  <cmt>extensions = 3.02 100.00</cmt>
    </trkpt>
    <trkpt lat="50.135651" lon="8.930588">
    <ele>105</ele>
    <time>2013-04-30T10:26:32Z</time>
  <cmt>extensions = 3.03 98.00</cmt>
    </trkpt>
    <trkpt lat="50.135131" lon="8.931965">
    <ele>105</ele>
    <time>2013-04-30T10:27:10Z</time>
  <cmt>extensions = 3.00 102.00</cmt>
    </trkpt>
    <trkpt lat="50.134768" lon="8.93292">
    <ele>105</ele>
    <time>2013-04-30T10:27:36Z</time>
  <cmt>extensions = 3.05 102.00</cmt>
    </trkpt>
    <trkpt lat="50.134506" lon="8.933773">
    <ele>105</ele>
    <time>2013-04-30T10:27:59Z</time>
  <cmt>extensions = 2.93 99.00</cmt>
    </trkpt>
    <trkpt lat="50.13424" lon="8.934591">
    <ele>105</ele>
    <time>2013-04-30T10:28:21Z</time>
  <cmt>extensions = 2.98 100.00</cmt>
    </trkpt>
    <trkpt lat="50.134198" lon="8.934984">
    <ele>105</ele>
    <time>2013-04-30T10:28:31Z</time>
  <cmt>extensions = 2.85 101.00</cmt>
    </trkpt>
    <trkpt lat="50.134137" lon="8.936624">
    <ele>106</ele>
    <time>2013-04-30T10:29:16Z</time>
  <cmt>extensions = 2.60 110.00</cmt>
    </trkpt>
    <trkpt lat="50.134158" lon="8.937542">
    <ele>107</ele>
    <time>2013-04-30T10:29:40Z</time>
  <cmt>extensions = 2.73 111.00</cmt>
    </trkpt>
    <trkpt lat="50.133704" lon="8.939743">
    <ele>108</ele>
    <time>2013-04-30T10:30:38Z</time>
  <cmt>extensions = 2.84 108.00</cmt>
    </trkpt>
    <trkpt lat="50.133631" lon="8.940527">
    <ele>109</ele>
    <time>2013-04-30T10:30:58Z</time>
  <cmt>extensions = 2.83 107.00</cmt>
    </trkpt>
    <trkpt lat="50.133589" lon="8.940986">
    <ele>109</ele>
    <time>2013-04-30T10:31:10Z</time>
  <cmt>extensions = 2.76 109.00</cmt>
    </trkpt>
    <trkpt lat="50.133396" lon="8.941504">
    <ele>108</ele>
    <time>2013-04-30T10:31:24Z</time>
  <cmt>extensions = 3.06 108.00</cmt>
    </trkpt>
    <trkpt lat="50.133101" lon="8.941517">
    <ele>108</ele>
    <time>2013-04-30T10:31:29Z</time>
  <cmt>extensions = 6.57 108.00</cmt>
    </trkpt>
    <trkpt lat="50.132945" lon="8.941519">
    <ele>108</ele>
    <time>2013-04-30T10:31:31Z</time>
  <cmt>extensions = 8.66 108.00</cmt>
    </trkpt>
    <trkpt lat="50.132937" lon="8.941411">
    <ele>108</ele>
    <time>2013-04-30T10:31:33Z</time>
  <cmt>extensions = 3.85 108.00</cmt>
    </trkpt>
    <trkpt lat="50.132862" lon="8.942037">
    <ele>108</ele>
    <time>2013-04-30T10:31:49Z</time>
  <cmt>extensions = 2.84 107.00</cmt>
    </trkpt>
    <trkpt lat="50.132816" lon="8.942658">
    <ele>107</ele>
    <time>2013-04-30T10:32:05Z</time>
  <cmt>extensions = 2.79 107.00</cmt>
    </trkpt>
    <trkpt lat="50.13287" lon="8.9425">
    <ele>107</ele>
    <time>2013-04-30T10:32:09Z</time>
  <cmt>extensions = 3.20 107.00</cmt>
    </trkpt>
    <trkpt lat="50.132935" lon="8.942448">
    <ele>107</ele>
    <time>2013-04-30T10:32:10Z</time>
  <cmt>extensions = 8.13 107.00</cmt>
    </trkpt>
    <trkpt lat="50.133145" lon="8.942429">
    <ele>108</ele>
    <time>2013-04-30T10:32:13Z</time>
  <cmt>extensions = 7.79 106.00</cmt>
    </trkpt>
    <trkpt lat="50.133607" lon="8.942428">
    <ele>109</ele>
    <time>2013-04-30T10:32:21Z</time>
  <cmt>extensions = 6.43 107.00</cmt>
    </trkpt>
    <trkpt lat="50.134204" lon="8.942615">
    <ele>110</ele>
    <time>2013-04-30T10:32:33Z</time>
  <cmt>extensions = 5.65 112.00</cmt>
    </trkpt>
    <trkpt lat="50.135263" lon="8.942914">
    <ele>111</ele>
    <time>2013-04-30T10:32:52Z</time>
  <cmt>extensions = 6.30 113.00</cmt>
    </trkpt>
    <trkpt lat="50.136322" lon="8.943397">
    <ele>111</ele>
    <time>2013-04-30T10:33:16Z</time>
  <cmt>extensions = 5.12 124.00</cmt>
    </trkpt>
    <trkpt lat="50.137204" lon="8.943953">
    <ele>111</ele>
    <time>2013-04-30T10:33:37Z</time>
  <cmt>extensions = 5.05 122.00</cmt>
    </trkpt>
    <trkpt lat="50.137847" lon="8.944547">
    <ele>111</ele>
    <time>2013-04-30T10:33:57Z</time>
  <cmt>extensions = 4.16 126.00</cmt>
    </trkpt>
    <trkpt lat="50.138197" lon="8.944981">
    <ele>112</ele>
    <time>2013-04-30T10:34:09Z</time>
  <cmt>extensions = 4.15 122.00</cmt>
    </trkpt>
    <trkpt lat="50.138487" lon="8.945485">
    <ele>112</ele>
    <time>2013-04-30T10:34:23Z</time>
  <cmt>extensions = 3.45 115.00</cmt>
    </trkpt>
    <trkpt lat="50.138693" lon="8.946292">
    <ele>113</ele>
    <time>2013-04-30T10:34:45Z</time>
  <cmt>extensions = 2.82 117.00</cmt>
    </trkpt>
    <trkpt lat="50.138986" lon="8.946998">
    <ele>115</ele>
    <time>2013-04-30T10:35:04Z</time>
  <cmt>extensions = 3.16 116.00</cmt>
    </trkpt>
    <trkpt lat="50.139266" lon="8.947698">
    <ele>116</ele>
    <time>2013-04-30T10:35:23Z</time>
  <cmt>extensions = 3.10 116.00</cmt>
    </trkpt>
    <trkpt lat="50.13941" lon="8.94819">
    <ele>117</ele>
    <time>2013-04-30T10:35:36Z</time>
  <cmt>extensions = 2.97 117.00</cmt>
    </trkpt>
    <trkpt lat="50.139644" lon="8.949046">
    <ele>118</ele>
    <time>2013-04-30T10:35:59Z</time>
  <cmt>extensions = 2.89 121.00</cmt>
    </trkpt>
    <trkpt lat="50.139832" lon="8.949538">
    <ele>118</ele>
    <time>2013-04-30T10:36:12Z</time>
  <cmt>extensions = 3.14 123.00</cmt>
    </trkpt>
    <trkpt lat="50.140046" lon="8.949898">
    <ele>118</ele>
    <time>2013-04-30T10:36:22Z</time>
  <cmt>extensions = 3.50 124.00</cmt>
    </trkpt>
    <trkpt lat="50.140529" lon="8.95016">
    <ele>118</ele>
    <time>2013-04-30T10:36:32Z</time>
  <cmt>extensions = 5.70 123.00</cmt>
    </trkpt>
    <trkpt lat="50.141077" lon="8.950258">
    <ele>117</ele>
    <time>2013-04-30T10:36:41Z</time>
  <cmt>extensions = 6.82 123.00</cmt>
    </trkpt>
    <trkpt lat="50.141436" lon="8.950356">
    <ele>116</ele>
    <time>2013-04-30T10:36:48Z</time>
  <cmt>extensions = 5.81 125.00</cmt>
    </trkpt>
    <trkpt lat="50.141771" lon="8.95049">
    <ele>116</ele>
    <time>2013-04-30T10:36:54Z</time>
  <cmt>extensions = 6.41 125.00</cmt>
    </trkpt>
    <trkpt lat="50.142408" lon="8.951149">
    <ele>114</ele>
    <time>2013-04-30T10:37:14Z</time>
  <cmt>extensions = 4.25 124.00</cmt>
    </trkpt>
    <trkpt lat="50.143158" lon="8.952563">
    <ele>111</ele>
    <time>2013-04-30T10:37:54Z</time>
  <cmt>extensions = 3.27 127.00</cmt>
    </trkpt>
    <trkpt lat="50.143654" lon="8.953276">
    <ele>110</ele>
    <time>2013-04-30T10:38:14Z</time>
  <cmt>extensions = 3.75 126.00</cmt>
    </trkpt>
    <trkpt lat="50.143934" lon="8.953817">
    <ele>109</ele>
    <time>2013-04-30T10:38:29Z</time>
  <cmt>extensions = 3.31 122.00</cmt>
    </trkpt>
    <trkpt lat="50.143989" lon="8.954158">
    <ele>109</ele>
    <time>2013-04-30T10:38:38Z</time>
  <cmt>extensions = 2.78 118.00</cmt>
    </trkpt>
    <trkpt lat="50.144212" lon="8.954948">
    <ele>110</ele>
    <time>2013-04-30T10:38:59Z</time>
  <cmt>extensions = 2.94 114.00</cmt>
    </trkpt>
    <trkpt lat="50.144138" lon="8.956241">
    <ele>110</ele>
    <time>2013-04-30T10:39:33Z</time>
  <cmt>extensions = 2.72 114.00</cmt>
    </trkpt>
    <trkpt lat="50.144039" lon="8.957508">
    <ele>110</ele>
    <time>2013-04-30T10:40:07Z</time>
  <cmt>extensions = 2.68 116.00</cmt>
    </trkpt>
    <trkpt lat="50.14402" lon="8.958327">
    <ele>110</ele>
    <time>2013-04-30T10:40:28Z</time>
  <cmt>extensions = 2.79 115.00</cmt>
    </trkpt>
    <trkpt lat="50.144136" lon="8.958913">
    <ele>110</ele>
    <time>2013-04-30T10:40:43Z</time>
  <cmt>extensions = 2.92 113.00</cmt>
    </trkpt>
    <trkpt lat="50.14437" lon="8.959372">
    <ele>110</ele>
    <time>2013-04-30T10:40:55Z</time>
  <cmt>extensions = 3.48 111.00</cmt>
    </trkpt>
    <trkpt lat="50.144754" lon="8.959694">
    <ele>110</ele>
    <time>2013-04-30T10:41:05Z</time>
  <cmt>extensions = 4.86 107.00</cmt>
    </trkpt>
    <trkpt lat="50.145044" lon="8.959785">
    <ele>110</ele>
    <time>2013-04-30T10:41:10Z</time>
  <cmt>extensions = 6.58 108.00</cmt>
    </trkpt>
    <trkpt lat="50.145448" lon="8.959691">
    <ele>111</ele>
    <time>2013-04-30T10:41:17Z</time>
  <cmt>extensions = 6.50 106.00</cmt>
    </trkpt>
    <trkpt lat="50.146159" lon="8.959371">
    <ele>111</ele>
    <time>2013-04-30T10:41:31Z</time>
  <cmt>extensions = 5.89 106.00</cmt>
    </trkpt>
    <trkpt lat="50.146791" lon="8.959304">
    <ele>112</ele>
    <time>2013-04-30T10:41:44Z</time>
  <cmt>extensions = 5.42 115.00</cmt>
    </trkpt>
    <trkpt lat="50.147151" lon="8.959403">
    <ele>112</ele>
    <time>2013-04-30T10:41:51Z</time>
  <cmt>extensions = 5.80 120.00</cmt>
    </trkpt>
    <trkpt lat="50.147855" lon="8.960321">
    <ele>113</ele>
    <time>2013-04-30T10:42:18Z</time>
  <cmt>extensions = 3.78 118.00</cmt>
    </trkpt>
    <trkpt lat="50.148599" lon="8.961886">
    <ele>115</ele>
    <time>2013-04-30T10:43:02Z</time>
  <cmt>extensions = 3.16 121.00</cmt>
    </trkpt>
    <trkpt lat="50.148808" lon="8.962287">
    <ele>115</ele>
    <time>2013-04-30T10:43:13Z</time>
  <cmt>extensions = 3.35 120.00</cmt>
    </trkpt>
    <trkpt lat="50.14943" lon="8.963393">
    <ele>113</ele>
    <time>2013-04-30T10:43:44Z</time>
  <cmt>extensions = 3.39 121.00</cmt>
    </trkpt>
    <trkpt lat="50.149854" lon="8.96491">
    <ele>111</ele>
    <time>2013-04-30T10:44:24Z</time>
  <cmt>extensions = 2.95 118.00</cmt>
    </trkpt>
    <trkpt lat="50.149834" lon="8.964864">
    <ele>111</ele>
    <time>2013-04-30T10:44:25Z</time>
  <cmt>extensions = 3.97 118.00</cmt>
    </trkpt>
    <trkpt lat="50.150051" lon="8.96598">
    <ele>113</ele>
    <time>2013-04-30T10:44:55Z</time>
  <cmt>extensions = 2.77 119.00</cmt>
    </trkpt>
    <trkpt lat="50.150106" lon="8.966698">
    <ele>115</ele>
    <time>2013-04-30T10:45:14Z</time>
  <cmt>extensions = 2.71 119.00</cmt>
    </trkpt>
    <trkpt lat="50.149959" lon="8.967457">
    <ele>117</ele>
    <time>2013-04-30T10:45:34Z</time>
  <cmt>extensions = 2.83 118.00</cmt>
    </trkpt>
    <trkpt lat="50.149873" lon="8.968322">
    <ele>118</ele>
    <time>2013-04-30T10:45:57Z</time>
  <cmt>extensions = 2.72 120.00</cmt>
    </trkpt>
    <trkpt lat="50.149893" lon="8.96888">
    <ele>119</ele>
    <time>2013-04-30T10:46:12Z</time>
  <cmt>extensions = 2.66 122.00</cmt>
    </trkpt>
    <trkpt lat="50.149977" lon="8.969404">
    <ele>119</ele>
    <time>2013-04-30T10:46:26Z</time>
  <cmt>extensions = 2.76 125.00</cmt>
    </trkpt>
    <trkpt lat="50.15023" lon="8.97029">
    <ele>119</ele>
    <time>2013-04-30T10:46:51Z</time>
  <cmt>extensions = 2.77 130.00</cmt>
    </trkpt>
    <trkpt lat="50.150568" lon="8.971175">
    <ele>118</ele>
    <time>2013-04-30T10:47:15Z</time>
  <cmt>extensions = 3.06 129.00</cmt>
    </trkpt>
    <trkpt lat="50.150961" lon="8.972336">
    <ele>117</ele>
    <time>2013-04-30T10:47:46Z</time>
  <cmt>extensions = 3.02 126.00</cmt>
    </trkpt>
    <trkpt lat="50.150946" lon="8.972356">
    <ele>117</ele>
    <time>2013-04-30T10:47:46Z</time>
  <cmt>extensions = 126.00</cmt>
    </trkpt>
    <trkpt lat="50.151138" lon="8.972749">
    <ele>117</ele>
    <time>2013-04-30T10:47:56Z</time>
  <cmt>extensions = 3.53 126.00</cmt>
    </trkpt>
    <trkpt lat="50.151533" lon="8.973278">
    <ele>117</ele>
    <time>2013-04-30T10:48:11Z</time>
  <cmt>extensions = 3.86 126.00</cmt>
    </trkpt>
    <trkpt lat="50.151771" lon="8.973471">
    <ele>117</ele>
    <time>2013-04-30T10:48:17Z</time>
  <cmt>extensions = 4.98 127.00</cmt>
    </trkpt>
    <trkpt lat="50.152214" lon="8.973725">
    <ele>118</ele>
    <time>2013-04-30T10:48:27Z</time>
  <cmt>extensions = 5.26 126.00</cmt>
    </trkpt>
    <trkpt lat="50.152658" lon="8.97404">
    <ele>117</ele>
    <time>2013-04-30T10:48:38Z</time>
  <cmt>extensions = 4.93 123.00</cmt>
    </trkpt>
    <trkpt lat="50.153121" lon="8.975672">
    <ele>114</ele>
    <time>2013-04-30T10:49:21Z</time>
  <cmt>extensions = 2.96 123.00</cmt>
    </trkpt>
    <trkpt lat="50.153167" lon="8.976379">
    <ele>112</ele>
    <time>2013-04-30T10:49:39Z</time>
  <cmt>extensions = 2.82 122.00</cmt>
    </trkpt>
    <trkpt lat="50.153412" lon="8.976738">
    <ele>112</ele>
    <time>2013-04-30T10:49:49Z</time>
  <cmt>extensions = 3.75 119.00</cmt>
    </trkpt>
    <trkpt lat="50.153683" lon="8.977397">
    <ele>112</ele>
    <time>2013-04-30T10:50:07Z</time>
  <cmt>extensions = 3.10 118.00</cmt>
    </trkpt>
    <trkpt lat="50.153901" lon="8.978005">
    <ele>112</ele>
    <time>2013-04-30T10:50:23Z</time>
  <cmt>extensions = 3.10 117.00</cmt>
    </trkpt>
    <trkpt lat="50.154032" lon="8.978813">
    <ele>113</ele>
    <time>2013-04-30T10:50:44Z</time>
  <cmt>extensions = 2.83 116.00</cmt>
    </trkpt>
    <trkpt lat="50.154069" lon="8.979347">
    <ele>114</ele>
    <time>2013-04-30T10:50:58Z</time>
  <cmt>extensions = 2.74 115.00</cmt>
    </trkpt>
    <trkpt lat="50.153983" lon="8.980391">
    <ele>115</ele>
    <time>2013-04-30T10:51:25Z</time>
  <cmt>extensions = 2.78 116.00</cmt>
    </trkpt>
    <trkpt lat="50.153968" lon="8.980822">
    <ele>116</ele>
    <time>2013-04-30T10:51:37Z</time>
  <cmt>extensions = 2.56 119.00</cmt>
    </trkpt>
    <trkpt lat="50.154025" lon="8.981211">
    <ele>116</ele>
    <time>2013-04-30T10:51:48Z</time>
  <cmt>extensions = 2.59 123.00</cmt>
    </trkpt>
    <trkpt lat="50.154048" lon="8.981802">
    <ele>117</ele>
    <time>2013-04-30T10:52:03Z</time>
  <cmt>extensions = 2.81 123.00</cmt>
    </trkpt>
    <trkpt lat="50.154025" lon="8.981867">
    <ele>117</ele>
    <time>2013-04-30T10:52:04Z</time>
  <cmt>extensions = 5.29 122.00</cmt>
    </trkpt>
    <trkpt lat="50.154025" lon="8.981867">
    <ele>117</ele>
    <time>2013-04-30T10:52:04Z</time>
  <cmt>extensions = 122.00</cmt>
    </trkpt>
    <trkpt lat="50.153557" lon="8.982129">
    <ele>115</ele>
    <time>2013-04-30T10:52:14Z</time>
  <cmt>extensions = 5.53 118.00</cmt>
    </trkpt>
    <trkpt lat="50.15314" lon="8.982327">
    <ele>113</ele>
    <time>2013-04-30T10:52:22Z</time>
  <cmt>extensions = 6.07 117.00</cmt>
    </trkpt>
    <trkpt lat="50.15314" lon="8.982327">
    <ele>113</ele>
    <time>2013-04-30T10:52:22Z</time>
  <cmt>extensions = 117.00</cmt>
    </trkpt>
    <trkpt lat="50.152635" lon="8.982655">
    <ele>112</ele>
    <time>2013-04-30T10:52:34Z</time>
  <cmt>extensions = 5.08 113.00</cmt>
    </trkpt>
    <trkpt lat="50.15236" lon="8.982819">
    <ele>111</ele>
    <time>2013-04-30T10:52:40Z</time>
  <cmt>extensions = 5.46 114.00</cmt>
    </trkpt>
    <trkpt lat="50.152149" lon="8.983082">
    <ele>112</ele>
    <time>2013-04-30T10:52:47Z</time>
  <cmt>extensions = 4.29 112.00</cmt>
    </trkpt>
    <trkpt lat="50.151938" lon="8.983213">
    <ele>112</ele>
    <time>2013-04-30T10:52:51Z</time>
  <cmt>extensions = 6.31 109.00</cmt>
    </trkpt>
    <trkpt lat="50.151765" lon="8.983508">
    <ele>112</ele>
    <time>2013-04-30T10:52:59Z</time>
  <cmt>extensions = 3.57 109.00</cmt>
    </trkpt>
    <trkpt lat="50.151602" lon="8.988986">
    <ele>110</ele>
    <time>2013-04-30T10:55:24Z</time>
  <cmt>extensions = 2.70 110.00</cmt>
    </trkpt>
    <trkpt lat="50.151624" lon="8.989282">
    <ele>110</ele>
    <time>2013-04-30T10:55:31Z</time>
  <cmt>extensions = 3.03 110.00</cmt>
    </trkpt>
    <trkpt lat="50.151624" lon="8.989282">
    <ele>110</ele>
    <time>2013-04-30T10:55:31Z</time>
  <cmt>extensions = 110.00</cmt>
    </trkpt>
    <trkpt lat="50.151709" lon="8.989643">
    <ele>110</ele>
    <time>2013-04-30T10:55:40Z</time>
  <cmt>extensions = 3.04 111.00</cmt>
    </trkpt>
    <trkpt lat="50.152614" lon="8.99266">
    <ele>111</ele>
    <time>2013-04-30T10:57:01Z</time>
  <cmt>extensions = 2.93 107.00</cmt>
    </trkpt>
    <trkpt lat="50.152847" lon="8.993349">
    <ele>111</ele>
    <time>2013-04-30T10:57:20Z</time>
  <cmt>extensions = 2.92 110.00</cmt>
    </trkpt>
    <trkpt lat="50.152973" lon="8.994071">
    <ele>112</ele>
    <time>2013-04-30T10:57:39Z</time>
  <cmt>extensions = 2.81 108.00</cmt>
    </trkpt>
    <trkpt lat="50.152993" lon="8.994694">
    <ele>112</ele>
    <time>2013-04-30T10:57:55Z</time>
  <cmt>extensions = 2.78 107.00</cmt>
    </trkpt>
    <trkpt lat="50.152993" lon="8.994694">
    <ele>112</ele>
    <time>2013-04-30T10:57:55Z</time>
  <cmt>extensions = 107.00</cmt>
    </trkpt>
    <trkpt lat="50.153184" lon="8.995088">
    <ele>112</ele>
    <time>2013-04-30T10:58:06Z</time>
  <cmt>extensions = 3.20 109.00</cmt>
    </trkpt>
    <trkpt lat="50.153375" lon="8.995416">
    <ele>111</ele>
    <time>2013-04-30T10:58:15Z</time>
  <cmt>extensions = 3.51 111.00</cmt>
    </trkpt>
    <trkpt lat="50.153375" lon="8.995416">
    <ele>111</ele>
    <time>2013-04-30T10:58:15Z</time>
  <cmt>extensions = 111.00</cmt>
    </trkpt>
    <trkpt lat="50.153628" lon="8.996268">
    <ele>112</ele>
    <time>2013-04-30T10:58:38Z</time>
  <cmt>extensions = 2.91 109.00</cmt>
    </trkpt>
    <trkpt lat="50.153792" lon="8.997068">
    <ele>114</ele>
    <time>2013-04-30T10:58:59Z</time>
  <cmt>extensions = 2.85 108.00</cmt>
    </trkpt>
    <trkpt lat="50.153792" lon="8.997068">
    <ele>114</ele>
    <time>2013-04-30T10:58:59Z</time>
  <cmt>extensions = 108.00</cmt>
    </trkpt>
    <trkpt lat="50.153965" lon="8.99699">
    <ele>114</ele>
    <time>2013-04-30T10:59:02Z</time>
  <cmt>extensions = 6.67 109.00</cmt>
    </trkpt>
    <trkpt lat="50.154513" lon="8.996629">
    <ele>114</ele>
    <time>2013-04-30T10:59:16Z</time>
  <cmt>extensions = 4.73 113.00</cmt>
    </trkpt>
    <trkpt lat="50.154849" lon="8.996301">
    <ele>115</ele>
    <time>2013-04-30T10:59:26Z</time>
  <cmt>extensions = 4.42 114.00</cmt>
    </trkpt>
    <trkpt lat="50.155164" lon="8.996071">
    <ele>115</ele>
    <time>2013-04-30T10:59:34Z</time>
  <cmt>extensions = 4.83 115.00</cmt>
    </trkpt>
    <trkpt lat="50.155439" lon="8.996104">
    <ele>115</ele>
    <time>2013-04-30T10:59:39Z</time>
  <cmt>extensions = 6.15 117.00</cmt>
    </trkpt>
    <trkpt lat="50.155439" lon="8.996104">
    <ele>115</ele>
    <time>2013-04-30T10:59:39Z</time>
  <cmt>extensions = 117.00</cmt>
    </trkpt>
    <trkpt lat="50.155734" lon="8.996301">
    <ele>115</ele>
    <time>2013-04-30T10:59:46Z</time>
  <cmt>extensions = 5.10 120.00</cmt>
    </trkpt>
    <trkpt lat="50.15626" lon="8.996367">
    <ele>115</ele>
    <time>2013-04-30T10:59:55Z</time>
  <cmt>extensions = 6.52 118.00</cmt>
    </trkpt>
    <trkpt lat="50.156766" lon="8.996399">
    <ele>115</ele>
    <time>2013-04-30T11:00:03Z</time>
  <cmt>extensions = 7.04 111.00</cmt>
    </trkpt>
    <trkpt lat="50.157316" lon="8.996399">
    <ele>115</ele>
    <time>2013-04-30T11:00:12Z</time>
  <cmt>extensions = 6.81 111.00</cmt>
    </trkpt>
    <trkpt lat="50.157378" lon="8.996432">
    <ele>115</ele>
    <time>2013-04-30T11:00:13Z</time>
  <cmt>extensions = 7.28 111.00</cmt>
    </trkpt>
    <trkpt lat="50.157378" lon="8.99676">
    <ele>115</ele>
    <time>2013-04-30T11:00:21Z</time>
  <cmt>extensions = 2.92 112.00</cmt>
    </trkpt>
    <trkpt lat="50.157415" lon="8.99731">
    <ele>116</ele>
    <time>2013-04-30T11:00:36Z</time>
  <cmt>extensions = 2.63 116.00</cmt>
    </trkpt>
    <trkpt lat="50.157413" lon="8.998109">
    <ele>116</ele>
    <time>2013-04-30T11:00:57Z</time>
  <cmt>extensions = 2.71 117.00</cmt>
    </trkpt>
    <trkpt lat="50.157376" lon="8.998248">
    <ele>116</ele>
    <time>2013-04-30T11:01:00Z</time>
  <cmt>extensions = 3.59 117.00</cmt>
    </trkpt>
    <trkpt lat="50.157484" lon="8.998368">
    <ele>116</ele>
    <time>2013-04-30T11:01:03Z</time>
  <cmt>extensions = 4.94 116.00</cmt>
    </trkpt>
    <trkpt lat="50.157504" lon="8.998368">
    <ele>116</ele>
    <time>2013-04-30T11:01:03Z</time>
  <cmt>extensions = 115.00</cmt>
    </trkpt>
    <trkpt lat="50.157926" lon="8.998302">
    <ele>115</ele>
    <time>2013-04-30T11:01:10Z</time>
  <cmt>extensions = 6.73 114.00</cmt>
    </trkpt>
    <trkpt lat="50.1586" lon="8.998105">
    <ele>113</ele>
    <time>2013-04-30T11:01:22Z</time>
  <cmt>extensions = 6.36 111.00</cmt>
    </trkpt>
    <trkpt lat="50.159086" lon="8.997974">
    <ele>112</ele>
    <time>2013-04-30T11:01:30Z</time>
  <cmt>extensions = 6.86 109.00</cmt>
    </trkpt>
    <trkpt lat="50.159653" lon="8.99758">
    <ele>112</ele>
    <time>2013-04-30T11:01:44Z</time>
  <cmt>extensions = 4.94 108.00</cmt>
    </trkpt>
    <trkpt lat="50.159991" lon="8.997285">
    <ele>112</ele>
    <time>2013-04-30T11:01:53Z</time>
  <cmt>extensions = 4.78 108.00</cmt>
    </trkpt>
    <trkpt lat="50.16037" lon="8.99676">
    <ele>112</ele>
    <time>2013-04-30T11:02:09Z</time>
  <cmt>extensions = 3.53 111.00</cmt>
    </trkpt>
    <trkpt lat="50.160389" lon="8.996826">
    <ele>112</ele>
    <time>2013-04-30T11:02:10Z</time>
  <cmt>extensions = 5.16 111.00</cmt>
    </trkpt>
    <trkpt lat="50.160751" lon="8.996369">
    <ele>113</ele>
    <time>2013-04-30T11:02:23Z</time>
  <cmt>extensions = 3.98 112.00</cmt>
    </trkpt>
    <trkpt lat="50.160751" lon="8.996369">
    <ele>113</ele>
    <time>2013-04-30T11:02:23Z</time>
  <cmt>extensions = 112.00</cmt>
    </trkpt>
    <trkpt lat="50.161103" lon="8.996698">
    <ele>114</ele>
    <time>2013-04-30T11:02:34Z</time>
  <cmt>extensions = 4.15 114.00</cmt>
    </trkpt>
    <trkpt lat="50.161327" lon="8.997092">
    <ele>114</ele>
    <time>2013-04-30T11:02:45Z</time>
  <cmt>extensions = 3.41 117.00</cmt>
    </trkpt>
    <trkpt lat="50.161721" lon="8.997699">
    <ele>114</ele>
    <time>2013-04-30T11:03:03Z</time>
  <cmt>extensions = 3.43 121.00</cmt>
    </trkpt>
    <trkpt lat="50.162383" lon="8.998891">
    <ele>114</ele>
    <time>2013-04-30T11:03:36Z</time>
  <cmt>extensions = 3.41 121.00</cmt>
    </trkpt>
    <trkpt lat="50.163238" lon="9.001366">
    <ele>115</ele>
    <time>2013-04-30T11:04:43Z</time>
  <cmt>extensions = 2.99 118.00</cmt>
    </trkpt>
    <trkpt lat="50.163914" lon="9.003966">
    <ele>116</ele>
    <time>2013-04-30T11:05:52Z</time>
  <cmt>extensions = 2.90 116.00</cmt>
    </trkpt>
    <trkpt lat="50.164479" lon="9.006899">
    <ele>116</ele>
    <time>2013-04-30T11:07:10Z</time>
  <cmt>extensions = 2.80 115.00</cmt>
    </trkpt>
    <trkpt lat="50.164479" lon="9.006899">
    <ele>116</ele>
    <time>2013-04-30T11:07:10Z</time>
  <cmt>extensions = 115.00</cmt>
    </trkpt>
    <trkpt lat="50.164333" lon="9.007128">
    <ele>116</ele>
    <time>2013-04-30T11:07:16Z</time>
  <cmt>extensions = 3.85 114.00</cmt>
    </trkpt>
    <trkpt lat="50.163401" lon="9.008604">
    <ele>119</ele>
    <time>2013-04-30T11:08:00Z</time>
  <cmt>extensions = 3.36 122.00</cmt>
    </trkpt>
    <trkpt lat="50.163024" lon="9.008998">
    <ele>120</ele>
    <time>2013-04-30T11:08:13Z</time>
  <cmt>extensions = 3.88 126.00</cmt>
    </trkpt>
    <trkpt lat="50.162266" lon="9.009457">
    <ele>121</ele>
    <time>2013-04-30T11:08:31Z</time>
  <cmt>extensions = 5.03 131.00</cmt>
    </trkpt>
    <trkpt lat="50.161614" lon="9.009851">
    <ele>119</ele>
    <time>2013-04-30T11:08:46Z</time>
  <cmt>extensions = 5.19 123.00</cmt>
    </trkpt>
    <trkpt lat="50.161487" lon="9.010048">
    <ele>119</ele>
    <time>2013-04-30T11:08:51Z</time>
  <cmt>extensions = 3.97 122.00</cmt>
    </trkpt>
    <trkpt lat="50.161445" lon="9.010113">
    <ele>118</ele>
    <time>2013-04-30T11:08:52Z</time>
  <cmt>extensions = 6.64 121.00</cmt>
    </trkpt>
    <trkpt lat="50.161445" lon="9.010474">
    <ele>118</ele>
    <time>2013-04-30T11:09:01Z</time>
  <cmt>extensions = 2.86 121.00</cmt>
    </trkpt>
    <trkpt lat="50.161445" lon="9.010474">
    <ele>118</ele>
    <time>2013-04-30T11:09:01Z</time>
  <cmt>extensions = 121.00</cmt>
    </trkpt>
    <trkpt lat="50.161445" lon="9.010474">
    <ele>118</ele>
    <time>2013-04-30T11:09:01Z</time>
  <cmt>extensions = 121.00</cmt>
    </trkpt>
    <trkpt lat="50.161309" lon="9.010865">
    <ele>118</ele>
    <time>2013-04-30T11:09:11Z</time>
  <cmt>extensions = 3.17 117.00</cmt>
    </trkpt>
    <trkpt lat="50.161123" lon="9.011873">
    <ele>119</ele>
    <time>2013-04-30T11:09:37Z</time>
  <cmt>extensions = 2.88 117.00</cmt>
    </trkpt>
    <trkpt lat="50.161024" lon="9.01241">
    <ele>120</ele>
    <time>2013-04-30T11:09:51Z</time>
  <cmt>extensions = 2.85 116.00</cmt>
    </trkpt>
    <trkpt lat="50.160694" lon="9.012968">
    <ele>120</ele>
    <time>2013-04-30T11:10:07Z</time>
  <cmt>extensions = 3.39 119.00</cmt>
    </trkpt>
    <trkpt lat="50.159821" lon="9.013098">
    <ele>121</ele>
    <time>2013-04-30T11:10:22Z</time>
  <cmt>extensions = 6.50 117.00</cmt>
    </trkpt>
    <trkpt lat="50.159653" lon="9.01323">
    <ele>121</ele>
    <time>2013-04-30T11:10:26Z</time>
  <cmt>extensions = 5.24 119.00</cmt>
    </trkpt>
    <trkpt lat="50.159299" lon="9.013689">
    <ele>122</ele>
    <time>2013-04-30T11:10:41Z</time>
  <cmt>extensions = 3.41 128.00</cmt>
    </trkpt>
    <trkpt lat="50.159299" lon="9.013689">
    <ele>122</ele>
    <time>2013-04-30T11:10:41Z</time>
  <cmt>extensions = 128.00</cmt>
    </trkpt>
    <trkpt lat="50.159073" lon="9.014001">
    <ele>123</ele>
    <time>2013-04-30T11:10:56Z</time>
  <cmt>extensions = 2.25 132.00</cmt>
    </trkpt>
    <trkpt lat="50.15874" lon="9.013997">
    <ele>123</ele>
    <time>2013-04-30T11:11:05Z</time>
  <cmt>extensions = 4.11 133.00</cmt>
    </trkpt>
    <trkpt lat="50.158567" lon="9.014018">
    <ele>123</ele>
    <time>2013-04-30T11:11:09Z</time>
  <cmt>extensions = 4.84 133.00</cmt>
    </trkpt>
    <trkpt lat="50.158366" lon="9.014049">
    <ele>123</ele>
    <time>2013-04-30T11:11:14Z</time>
  <cmt>extensions = 4.49 133.00</cmt>
    </trkpt>
    <trkpt lat="50.158198" lon="9.014345">
    <ele>122</ele>
    <time>2013-04-30T11:11:27Z</time>
  <cmt>extensions = 2.17 134.00</cmt>
    </trkpt>
    <trkpt lat="50.157984" lon="9.015154">
    <ele>121</ele>
    <time>2013-04-30T11:12:00Z</time>
  <cmt>extensions = 1.89 130.00</cmt>
    </trkpt>
    <trkpt lat="50.158232" lon="9.015413">
    <ele>120</ele>
    <time>2013-04-30T11:12:12Z</time>
  <cmt>extensions = 2.77 130.00</cmt>
    </trkpt>
    <trkpt lat="50.158534" lon="9.015621">
    <ele>120</ele>
    <time>2013-04-30T11:12:24Z</time>
  <cmt>extensions = 3.07 131.00</cmt>
    </trkpt>
    <trkpt lat="50.15904" lon="9.016053">
    <ele>121</ele>
    <time>2013-04-30T11:12:46Z</time>
  <cmt>extensions = 2.91 132.00</cmt>
    </trkpt>
    <trkpt lat="50.159811" lon="9.016459">
    <ele>122</ele>
    <time>2013-04-30T11:13:12Z</time>
  <cmt>extensions = 3.48 131.00</cmt>
    </trkpt>
    <trkpt lat="50.160381" lon="9.016902">
    <ele>121</ele>
    <time>2013-04-30T11:13:35Z</time>
  <cmt>extensions = 3.08 127.00</cmt>
    </trkpt>
    <trkpt lat="50.160713" lon="9.017078">
    <ele>121</ele>
    <time>2013-04-30T11:13:46Z</time>
  <cmt>extensions = 3.55 126.00</cmt>
    </trkpt>
    <trkpt lat="50.160936" lon="9.017233">
    <ele>120</ele>
    <time>2013-04-30T11:13:54Z</time>
  <cmt>extensions = 3.39 123.00</cmt>
    </trkpt>
    <trkpt lat="50.160939" lon="9.017167">
    <ele>120</ele>
    <time>2013-04-30T11:13:56Z</time>
  <cmt>extensions = 2.35 125.00</cmt>
    </trkpt>
    <trkpt lat="50.160863" lon="9.017975">
    <ele>120</ele>
    <time>2013-04-30T11:14:17Z</time>
  <cmt>extensions = 2.77 120.00</cmt>
    </trkpt>
    <trkpt lat="50.160842" lon="9.018129">
    <ele>120</ele>
    <time>2013-04-30T11:14:23Z</time>
  <cmt>extensions = 1.88 120.00</cmt>
    </trkpt>
    <trkpt lat="50.160789" lon="9.018545">
    <ele>120</ele>
    <time>2013-04-30T11:14:40Z</time>
  <cmt>extensions = 1.78 122.00</cmt>
    </trkpt>
    <trkpt lat="50.161613" lon="9.018717">
    <ele>120</ele>
    <time>2013-04-30T11:15:02Z</time>
  <cmt>extensions = 4.20 119.00</cmt>
    </trkpt>
    <trkpt lat="50.162252" lon="9.01891">
    <ele>121</ele>
    <time>2013-04-30T11:15:20Z</time>
  <cmt>extensions = 4.03 115.00</cmt>
    </trkpt>
    <trkpt lat="50.162728" lon="9.019054">
    <ele>120</ele>
    <time>2013-04-30T11:15:33Z</time>
  <cmt>extensions = 4.15 115.00</cmt>
    </trkpt>
    <trkpt lat="50.163263" lon="9.019046">
    <ele>117</ele>
    <time>2013-04-30T11:15:47Z</time>
  <cmt>extensions = 4.26 114.00</cmt>
    </trkpt>
    <trkpt lat="50.16367" lon="9.019157">
    <ele>115</ele>
    <time>2013-04-30T11:15:58Z</time>
  <cmt>extensions = 4.18 113.00</cmt>
    </trkpt>
    <trkpt lat="50.16367" lon="9.019157">
    <ele>115</ele>
    <time>2013-04-30T11:15:58Z</time>
  <cmt>extensions = 113.00</cmt>
    </trkpt>
    <trkpt lat="50.163888" lon="9.01976">
    <ele>115</ele>
    <time>2013-04-30T11:16:14Z</time>
  <cmt>extensions = 3.09 115.00</cmt>
    </trkpt>
    <trkpt lat="50.164309" lon="9.021073">
    <ele>114</ele>
    <time>2013-04-30T11:16:49Z</time>
  <cmt>extensions = 2.99 116.00</cmt>
    </trkpt>
    <trkpt lat="50.164753" lon="9.022353">
    <ele>114</ele>
    <time>2013-04-30T11:17:23Z</time>
  <cmt>extensions = 3.05 117.00</cmt>
    </trkpt>
    <trkpt lat="50.165038" lon="9.023226">
    <ele>114</ele>
    <time>2013-04-30T11:17:46Z</time>
  <cmt>extensions = 3.04 118.00</cmt>
    </trkpt>
    <trkpt lat="50.165347" lon="9.023842">
    <ele>113</ele>
    <time>2013-04-30T11:18:03Z</time>
  <cmt>extensions = 3.28 117.00</cmt>
    </trkpt>
    <trkpt lat="50.165709" lon="9.024445">
    <ele>113</ele>
    <time>2013-04-30T11:18:20Z</time>
  <cmt>extensions = 3.47 115.00</cmt>
    </trkpt>
    <trkpt lat="50.166289" lon="9.025241">
    <ele>114</ele>
    <time>2013-04-30T11:18:43Z</time>
  <cmt>extensions = 3.74 113.00</cmt>
    </trkpt>
    <trkpt lat="50.16643" lon="9.025421">
    <ele>114</ele>
    <time>2013-04-30T11:18:48Z</time>
  <cmt>extensions = 4.05 112.00</cmt>
    </trkpt>
    <trkpt lat="50.16643" lon="9.025421">
    <ele>114</ele>
    <time>2013-04-30T11:18:48Z</time>
  <cmt>extensions = 112.00</cmt>
    </trkpt>
    <trkpt lat="50.166901" lon="9.026193">
    <ele>115</ele>
    <time>2013-04-30T11:19:09Z</time>
  <cmt>extensions = 3.62 111.00</cmt>
    </trkpt>
    <trkpt lat="50.167007" lon="9.026948">
    <ele>116</ele>
    <time>2013-04-30T11:19:30Z</time>
  <cmt>extensions = 2.62 115.00</cmt>
    </trkpt>
    <trkpt lat="50.167007" lon="9.026948">
    <ele>116</ele>
    <time>2013-04-30T11:19:30Z</time>
  <cmt>extensions = 115.00</cmt>
    </trkpt>
    <trkpt lat="50.167151" lon="9.027166">
    <ele>116</ele>
    <time>2013-04-30T11:19:36Z</time>
  <cmt>extensions = 3.72 116.00</cmt>
    </trkpt>
    <trkpt lat="50.1675" lon="9.027396">
    <ele>116</ele>
    <time>2013-04-30T11:19:44Z</time>
  <cmt>extensions = 5.27 118.00</cmt>
    </trkpt>
    <trkpt lat="50.167986" lon="9.028044">
    <ele>116</ele>
    <time>2013-04-30T11:20:03Z</time>
  <cmt>extensions = 3.75 119.00</cmt>
    </trkpt>
    <trkpt lat="50.168556" lon="9.029074">
    <ele>116</ele>
    <time>2013-04-30T11:20:31Z</time>
  <cmt>extensions = 3.47 118.00</cmt>
    </trkpt>
    <trkpt lat="50.168945" lon="9.029574">
    <ele>116</ele>
    <time>2013-04-30T11:20:45Z</time>
  <cmt>extensions = 4.01 118.00</cmt>
    </trkpt>
    <trkpt lat="50.168901" lon="9.029377">
    <ele>116</ele>
    <time>2013-04-30T11:20:50Z</time>
  <cmt>extensions = 2.98 118.00</cmt>
    </trkpt>
    <trkpt lat="50.169574" lon="9.032396">
    <ele>117</ele>
    <time>2013-04-30T11:22:10Z</time>
  <cmt>extensions = 2.85 118.00</cmt>
    </trkpt>
    <trkpt lat="50.170059" lon="9.034267">
    <ele>118</ele>
    <time>2013-04-30T11:23:00Z</time>
  <cmt>extensions = 2.88 121.00</cmt>
    </trkpt>
    <trkpt lat="50.17025" lon="9.034956">
    <ele>119</ele>
    <time>2013-04-30T11:23:18Z</time>
  <cmt>extensions = 2.97 120.00</cmt>
    </trkpt>
    <trkpt lat="50.170587" lon="9.035318">
    <ele>119</ele>
    <time>2013-04-30T11:23:29Z</time>
  <cmt>extensions = 4.14 121.00</cmt>
    </trkpt>
    <trkpt lat="50.170564" lon="9.035416">
    <ele>119</ele>
    <time>2013-04-30T11:23:31Z</time>
  <cmt>extensions = 3.72 121.00</cmt>
    </trkpt>
    <trkpt lat="50.170696" lon="9.035416">
    <ele>119</ele>
    <time>2013-04-30T11:23:33Z</time>
  <cmt>extensions = 7.31 121.00</cmt>
    </trkpt>
    <trkpt lat="50.170624" lon="9.035752">
    <ele>119</ele>
    <time>2013-04-30T11:23:41Z</time>
  <cmt>extensions = 3.15 120.00</cmt>
    </trkpt>
    <trkpt lat="50.170435" lon="9.036545">
    <ele>118</ele>
    <time>2013-04-30T11:24:02Z</time>
  <cmt>extensions = 2.87 120.00</cmt>
    </trkpt>
    <trkpt lat="50.170249" lon="9.037254">
    <ele>117</ele>
    <time>2013-04-30T11:24:21Z</time>
  <cmt>extensions = 2.88 118.00</cmt>
    </trkpt>
    <trkpt lat="50.170154" lon="9.038523">
    <ele>116</ele>
    <time>2013-04-30T11:24:54Z</time>
  <cmt>extensions = 2.76 114.00</cmt>
    </trkpt>
    <trkpt lat="50.17024" lon="9.041885">
    <ele>114</ele>
    <time>2013-04-30T11:26:23Z</time>
  <cmt>extensions = 2.70 114.00</cmt>
    </trkpt>
    <trkpt lat="50.170292" lon="9.043264">
    <ele>114</ele>
    <time>2013-04-30T11:26:59Z</time>
  <cmt>extensions = 2.74 112.00</cmt>
    </trkpt>
    <trkpt lat="50.170371" lon="9.043972">
    <ele>114</ele>
    <time>2013-04-30T11:27:18Z</time>
  <cmt>extensions = 2.70 113.00</cmt>
    </trkpt>
    <trkpt lat="50.170398" lon="9.044458">
    <ele>114</ele>
    <time>2013-04-30T11:27:31Z</time>
  <cmt>extensions = 2.67 114.00</cmt>
    </trkpt>
    <trkpt lat="50.17045" lon="9.044789">
    <ele>114</ele>
    <time>2013-04-30T11:27:40Z</time>
  <cmt>extensions = 2.70 115.00</cmt>
    </trkpt>
    <trkpt lat="50.170586" lon="9.045048">
    <ele>114</ele>
    <time>2013-04-30T11:27:47Z</time>
  <cmt>extensions = 3.41 114.00</cmt>
    </trkpt>
    <trkpt lat="50.170678" lon="9.045183">
    <ele>114</ele>
    <time>2013-04-30T11:27:50Z</time>
  <cmt>extensions = 4.68 114.00</cmt>
    </trkpt>
    <trkpt lat="50.170772" lon="9.045392">
    <ele>115</ele>
    <time>2013-04-30T11:27:55Z</time>
  <cmt>extensions = 3.65 114.00</cmt>
    </trkpt>
    <trkpt lat="50.170772" lon="9.04572">
    <ele>115</ele>
    <time>2013-04-30T11:28:03Z</time>
  <cmt>extensions = 2.92 114.00</cmt>
    </trkpt>
    <trkpt lat="50.170744" lon="9.046151">
    <ele>116</ele>
    <time>2013-04-30T11:28:14Z</time>
  <cmt>extensions = 2.81 115.00</cmt>
    </trkpt>
    <trkpt lat="50.170744" lon="9.046151">
    <ele>116</ele>
    <time>2013-04-30T11:28:14Z</time>
  <cmt>extensions = 115.00</cmt>
    </trkpt>
    <trkpt lat="50.170729" lon="9.046599">
    <ele>116</ele>
    <time>2013-04-30T11:28:26Z</time>
  <cmt>extensions = 2.66 117.00</cmt>
    </trkpt>
    <trkpt lat="50.170789" lon="9.046866">
    <ele>116</ele>
    <time>2013-04-30T11:28:33Z</time>
  <cmt>extensions = 2.89 119.00</cmt>
    </trkpt>
    <trkpt lat="50.170789" lon="9.046866">
    <ele>116</ele>
    <time>2013-04-30T11:28:33Z</time>
  <cmt>extensions = 119.00</cmt>
    </trkpt>
    <trkpt lat="50.170893" lon="9.047495">
    <ele>117</ele>
    <time>2013-04-30T11:28:50Z</time>
  <cmt>extensions = 2.72 121.00</cmt>
    </trkpt>
    <trkpt lat="50.170915" lon="9.047664">
    <ele>118</ele>
    <time>2013-04-30T11:28:54Z</time>
  <cmt>extensions = 3.08 123.00</cmt>
    </trkpt>
    <trkpt lat="50.170934" lon="9.047509">
    <ele>118</ele>
    <time>2013-04-30T11:28:58Z</time>
  <cmt>extensions = 2.80 122.00</cmt>
    </trkpt>
    <trkpt lat="50.170941" lon="9.047559">
    <ele>118</ele>
    <time>2013-04-30T11:28:59Z</time>
  <cmt>extensions = 3.62 122.00</cmt>
    </trkpt>
    <trkpt lat="50.170993" lon="9.047862">
    <ele>119</ele>
    <time>2013-04-30T11:29:07Z</time>
  <cmt>extensions = 2.80 125.00</cmt>
    </trkpt>
    <trkpt lat="50.170792" lon="9.048054">
    <ele>120</ele>
    <time>2013-04-30T11:29:13Z</time>
  <cmt>extensions = 4.37 127.00</cmt>
    </trkpt>
    <trkpt lat="50.170502" lon="9.04822">
    <ele>121</ele>
    <time>2013-04-30T11:29:20Z</time>
  <cmt>extensions = 4.91 129.00</cmt>
    </trkpt>
    <trkpt lat="50.170353" lon="9.047688">
    <ele>123</ele>
    <time>2013-04-30T11:29:34Z</time>
  <cmt>extensions = 2.96 128.00</cmt>
    </trkpt>
    <trkpt lat="50.169983" lon="9.047914">
    <ele>124</ele>
    <time>2013-04-30T11:29:42Z</time>
  <cmt>extensions = 5.54 129.00</cmt>
    </trkpt>
    <trkpt lat="50.169243" lon="9.048357">
    <ele>125</ele>
    <time>2013-04-30T11:29:59Z</time>
  <cmt>extensions = 5.18 129.00</cmt>
    </trkpt>
    <trkpt lat="50.16878" lon="9.048693">
    <ele>125</ele>
    <time>2013-04-30T11:30:11Z</time>
  <cmt>extensions = 4.74 130.00</cmt>
    </trkpt>
    <trkpt lat="50.168284" lon="9.049143">
    <ele>125</ele>
    <time>2013-04-30T11:30:25Z</time>
  <cmt>extensions = 4.56 129.00</cmt>
    </trkpt>
    <trkpt lat="50.167713" lon="9.049672">
    <ele>125</ele>
    <time>2013-04-30T11:30:42Z</time>
  <cmt>extensions = 4.35 123.00</cmt>
    </trkpt>
    <trkpt lat="50.167922" lon="9.049719">
    <ele>125</ele>
    <time>2013-04-30T11:30:46Z</time>
  <cmt>extensions = 5.86 125.00</cmt>
    </trkpt>
    <trkpt lat="50.168457" lon="9.050708">
    <ele>124</ele>
    <time>2013-04-30T11:31:13Z</time>
  <cmt>extensions = 3.42 126.00</cmt>
    </trkpt>
    <trkpt lat="50.169046" lon="9.051779">
    <ele>124</ele>
    <time>2013-04-30T11:31:43Z</time>
  <cmt>extensions = 3.36 126.00</cmt>
    </trkpt>
    <trkpt lat="50.169873" lon="9.05312">
    <ele>123</ele>
    <time>2013-04-30T11:32:21Z</time>
  <cmt>extensions = 3.49 128.00</cmt>
    </trkpt>
    <trkpt lat="50.170917" lon="9.054887">
    <ele>121</ele>
    <time>2013-04-30T11:33:11Z</time>
  <cmt>extensions = 3.43 122.00</cmt>
    </trkpt>
    <trkpt lat="50.172026" lon="9.056773">
    <ele>118</ele>
    <time>2013-04-30T11:34:04Z</time>
  <cmt>extensions = 3.44 116.00</cmt>
    </trkpt>
    <trkpt lat="50.172323" lon="9.057081">
    <ele>117</ele>
    <time>2013-04-30T11:34:13Z</time>
  <cmt>extensions = 4.41 113.00</cmt>
    </trkpt>
    <trkpt lat="50.173618" lon="9.05565">
    <ele>116</ele>
    <time>2013-04-30T11:34:56Z</time>
  <cmt>extensions = 4.11 113.00</cmt>
    </trkpt>
    <trkpt lat="50.1749" lon="9.054159">
    <ele>117</ele>
    <time>2013-04-30T11:35:42Z</time>
  <cmt>extensions = 3.87 117.00</cmt>
    </trkpt>
    <trkpt lat="50.174697" lon="9.05433">
    <ele>117</ele>
    <time>2013-04-30T11:35:47Z</time>
  <cmt>extensions = 5.14 116.00</cmt>
    </trkpt>
    <trkpt lat="50.174865" lon="9.054274">
    <ele>117</ele>
    <time>2013-04-30T11:35:50Z</time>
  <cmt>extensions = 6.40 117.00</cmt>
    </trkpt>
    <trkpt lat="50.175031" lon="9.054076">
    <ele>117</ele>
    <time>2013-04-30T11:35:56Z</time>
  <cmt>extensions = 3.88 118.00</cmt>
    </trkpt>
    <trkpt lat="50.175524" lon="9.055197">
    <ele>117</ele>
    <time>2013-04-30T11:36:26Z</time>
  <cmt>extensions = 3.23 117.00</cmt>
    </trkpt>
    <trkpt lat="50.176108" lon="9.056921">
    <ele>118</ele>
    <time>2013-04-30T11:37:12Z</time>
  <cmt>extensions = 3.02 117.00</cmt>
    </trkpt>
    <trkpt lat="50.176673" lon="9.058604">
    <ele>118</ele>
    <time>2013-04-30T11:37:57Z</time>
  <cmt>extensions = 3.01 118.00</cmt>
    </trkpt>
    <trkpt lat="50.176878" lon="9.059281">
    <ele>119</ele>
    <time>2013-04-30T11:38:15Z</time>
  <cmt>extensions = 2.97 117.00</cmt>
    </trkpt>
    <trkpt lat="50.177153" lon="9.05997">
    <ele>119</ele>
    <time>2013-04-30T11:38:33Z</time>
  <cmt>extensions = 3.22 117.00</cmt>
    </trkpt>
    <trkpt lat="50.177425" lon="9.060529">
    <ele>119</ele>
    <time>2013-04-30T11:38:48Z</time>
  <cmt>extensions = 3.34 118.00</cmt>
    </trkpt>
    <trkpt lat="50.177826" lon="9.061186">
    <ele>119</ele>
    <time>2013-04-30T11:39:06Z</time>
  <cmt>extensions = 3.59 119.00</cmt>
    </trkpt>
    <trkpt lat="50.178141" lon="9.061744">
    <ele>119</ele>
    <time>2013-04-30T11:39:21Z</time>
  <cmt>extensions = 3.53 119.00</cmt>
    </trkpt>
    <trkpt lat="50.178478" lon="9.062369">
    <ele>119</ele>
    <time>2013-04-30T11:39:38Z</time>
  <cmt>extensions = 3.43 118.00</cmt>
    </trkpt>
    <trkpt lat="50.17894" lon="9.064399">
    <ele>120</ele>
    <time>2013-04-30T11:40:32Z</time>
  <cmt>extensions = 2.84 118.00</cmt>
    </trkpt>
    <trkpt lat="50.179518" lon="9.067883">
    <ele>121</ele>
    <time>2013-04-30T11:42:05Z</time>
  <cmt>extensions = 2.76 119.00</cmt>
    </trkpt>
    <trkpt lat="50.179806" lon="9.069426">
    <ele>123</ele>
    <time>2013-04-30T11:42:46Z</time>
  <cmt>extensions = 2.79 119.00</cmt>
    </trkpt>
    <trkpt lat="50.179806" lon="9.069426">
    <ele>123</ele>
    <time>2013-04-30T11:42:46Z</time>
  <cmt>extensions = 119.00</cmt>
    </trkpt>
    <trkpt lat="50.179946" lon="9.070112">
    <ele>123</ele>
    <time>2013-04-30T11:43:04Z</time>
  <cmt>extensions = 2.85 120.00</cmt>
    </trkpt>
    <trkpt lat="50.180427" lon="9.073166">
    <ele>124</ele>
    <time>2013-04-30T11:44:25Z</time>
  <cmt>extensions = 2.77 122.00</cmt>
    </trkpt>
    <trkpt lat="50.180682" lon="9.074552">
    <ele>124</ele>
    <time>2013-04-30T11:45:01Z</time>
  <cmt>extensions = 2.85 122.00</cmt>
    </trkpt>
    <trkpt lat="50.180911" lon="9.076152">
    <ele>123</ele>
    <time>2013-04-30T11:45:43Z</time>
  <cmt>extensions = 2.78 122.00</cmt>
    </trkpt>
    <trkpt lat="50.181166" lon="9.077293">
    <ele>123</ele>
    <time>2013-04-30T11:46:13Z</time>
  <cmt>extensions = 2.87 122.00</cmt>
    </trkpt>
    <trkpt lat="50.181401" lon="9.077996">
    <ele>122</ele>
    <time>2013-04-30T11:46:32Z</time>
  <cmt>extensions = 2.97 123.00</cmt>
    </trkpt>
    <trkpt lat="50.181688" lon="9.078693">
    <ele>122</ele>
    <time>2013-04-30T11:46:51Z</time>
  <cmt>extensions = 3.11 124.00</cmt>
    </trkpt>
    <trkpt lat="50.182064" lon="9.079342">
    <ele>122</ele>
    <time>2013-04-30T11:47:09Z</time>
  <cmt>extensions = 3.47 124.00</cmt>
    </trkpt>
    <trkpt lat="50.182497" lon="9.080115">
    <ele>122</ele>
    <time>2013-04-30T11:47:30Z</time>
  <cmt>extensions = 3.49 121.00</cmt>
    </trkpt>
    <trkpt lat="50.182958" lon="9.080763">
    <ele>123</ele>
    <time>2013-04-30T11:47:48Z</time>
  <cmt>extensions = 3.84 120.00</cmt>
    </trkpt>
    <trkpt lat="50.184043" lon="9.081926">
    <ele>123</ele>
    <time>2013-04-30T11:48:25Z</time>
  <cmt>extensions = 3.96 125.00</cmt>
    </trkpt>
    <trkpt lat="50.184791" lon="9.082748">
    <ele>123</ele>
    <time>2013-04-30T11:48:50Z</time>
  <cmt>extensions = 4.07 127.00</cmt>
    </trkpt>
    <trkpt lat="50.186012" lon="9.08412">
    <ele>123</ele>
    <time>2013-04-30T11:49:31Z</time>
  <cmt>extensions = 4.08 125.00</cmt>
    </trkpt>
    <trkpt lat="50.186866" lon="9.084991">
    <ele>122</ele>
    <time>2013-04-30T11:49:58Z</time>
  <cmt>extensions = 4.21 124.00</cmt>
    </trkpt>
    <trkpt lat="50.187416" lon="9.085677">
    <ele>121</ele>
    <time>2013-04-30T11:50:18Z</time>
  <cmt>extensions = 3.92 124.00</cmt>
    </trkpt>
    <trkpt lat="50.187745" lon="9.086327">
    <ele>121</ele>
    <time>2013-04-30T11:50:36Z</time>
  <cmt>extensions = 3.28 122.00</cmt>
    </trkpt>
    <trkpt lat="50.188188" lon="9.08725">
    <ele>121</ele>
    <time>2013-04-30T11:51:01Z</time>
  <cmt>extensions = 3.29 119.00</cmt>
    </trkpt>
    <trkpt lat="50.189079" lon="9.089624">
    <ele>121</ele>
    <time>2013-04-30T11:52:05Z</time>
  <cmt>extensions = 3.06 119.00</cmt>
    </trkpt>
    <trkpt lat="50.189467" lon="9.090906">
    <ele>121</ele>
    <time>2013-04-30T11:52:39Z</time>
  <cmt>extensions = 2.97 120.00</cmt>
    </trkpt>
    <trkpt lat="50.189769" lon="9.091826">
    <ele>121</ele>
    <time>2013-04-30T11:53:03Z</time>
  <cmt>extensions = 3.07 120.00</cmt>
    </trkpt>
    <trkpt lat="50.18984" lon="9.092421">
    <ele>122</ele>
    <time>2013-04-30T11:53:18Z</time>
  <cmt>extensions = 2.88 120.00</cmt>
    </trkpt>
    <trkpt lat="50.189924" lon="9.092716">
    <ele>122</ele>
    <time>2013-04-30T11:53:25Z</time>
  <cmt>extensions = 3.29 120.00</cmt>
    </trkpt>
    <trkpt lat="50.189694" lon="9.092716">
    <ele>121</ele>
    <time>2013-04-30T11:53:28Z</time>
  <cmt>extensions = 8.56 119.00</cmt>
    </trkpt>
    <trkpt lat="50.18923" lon="9.092781">
    <ele>121</ele>
    <time>2013-04-30T11:53:36Z</time>
  <cmt>extensions = 6.48 118.00</cmt>
    </trkpt>
    <trkpt lat="50.188935" lon="9.09278">
    <ele>121</ele>
    <time>2013-04-30T11:53:41Z</time>
  <cmt>extensions = 6.57 118.00</cmt>
    </trkpt>
    <trkpt lat="50.188511" lon="9.093079">
    <ele>121</ele>
    <time>2013-04-30T11:53:51Z</time>
  <cmt>extensions = 5.18 119.00</cmt>
    </trkpt>
    <trkpt lat="50.188015" lon="9.093357">
    <ele>121</ele>
    <time>2013-04-30T11:54:02Z</time>
  <cmt>extensions = 5.33 116.00</cmt>
    </trkpt>
    <trkpt lat="50.187479" lon="9.093643">
    <ele>121</ele>
    <time>2013-04-30T11:54:13Z</time>
  <cmt>extensions = 5.73 115.00</cmt>
    </trkpt>
    <trkpt lat="50.1868" lon="9.09415">
    <ele>121</ele>
    <time>2013-04-30T11:54:31Z</time>
  <cmt>extensions = 4.66 118.00</cmt>
    </trkpt>
    <trkpt lat="50.186386" lon="9.094404">
    <ele>121</ele>
    <time>2013-04-30T11:54:41Z</time>
  <cmt>extensions = 4.95 120.00</cmt>
    </trkpt>
    <trkpt lat="50.186361" lon="9.094613">
    <ele>121</ele>
    <time>2013-04-30T11:54:46Z</time>
  <cmt>extensions = 3.04 120.00</cmt>
    </trkpt>
    <trkpt lat="50.186365" lon="9.094872">
    <ele>121</ele>
    <time>2013-04-30T11:54:52Z</time>
  <cmt>extensions = 3.08 120.00</cmt>
    </trkpt>
    <trkpt lat="50.186331" lon="9.094849">
    <ele>121</ele>
    <time>2013-04-30T11:54:52Z</time>
  <cmt>extensions = 120.00</cmt>
    </trkpt>
    <trkpt lat="50.186586" lon="9.095151">
    <ele>121</ele>
    <time>2013-04-30T11:55:01Z</time>
  <cmt>extensions = 3.96 120.00</cmt>
    </trkpt>
    <trkpt lat="50.18693" lon="9.095836">
    <ele>121</ele>
    <time>2013-04-30T11:55:20Z</time>
  <cmt>extensions = 3.27 120.00</cmt>
    </trkpt>
    <trkpt lat="50.187157" lon="9.09663">
    <ele>121</ele>
    <time>2013-04-30T11:55:41Z</time>
  <cmt>extensions = 2.95 120.00</cmt>
    </trkpt>
    <trkpt lat="50.187199" lon="9.097214">
    <ele>121</ele>
    <time>2013-04-30T11:55:56Z</time>
  <cmt>extensions = 2.79 120.00</cmt>
    </trkpt>
    <trkpt lat="50.18725" lon="9.098489">
    <ele>121</ele>
    <time>2013-04-30T11:56:29Z</time>
  <cmt>extensions = 2.76 119.00</cmt>
    </trkpt>
    <trkpt lat="50.187341" lon="9.099229">
    <ele>121</ele>
    <time>2013-04-30T11:56:48Z</time>
  <cmt>extensions = 2.83 120.00</cmt>
    </trkpt>
    <trkpt lat="50.188024" lon="9.100839">
    <ele>121</ele>
    <time>2013-04-30T11:57:32Z</time>
  <cmt>extensions = 3.13 118.00</cmt>
    </trkpt>
    <trkpt lat="50.188758" lon="9.10253">
    <ele>121</ele>
    <time>2013-04-30T11:58:18Z</time>
  <cmt>extensions = 3.17 119.00</cmt>
    </trkpt>
    <trkpt lat="50.189295" lon="9.103853">
    <ele>121</ele>
    <time>2013-04-30T11:58:54Z</time>
  <cmt>extensions = 3.10 117.00</cmt>
    </trkpt>
    <trkpt lat="50.189744" lon="9.10568">
    <ele>121</ele>
    <time>2013-04-30T11:59:43Z</time>
  <cmt>extensions = 2.85 118.00</cmt>
    </trkpt>
    <trkpt lat="50.189997" lon="9.106411">
    <ele>121</ele>
    <time>2013-04-30T12:00:03Z</time>
  <cmt>extensions = 2.96 120.00</cmt>
    </trkpt>
    <trkpt lat="50.19015" lon="9.106834">
    <ele>121</ele>
    <time>2013-04-30T12:00:14Z</time>
  <cmt>extensions = 3.15 119.00</cmt>
    </trkpt>
    <trkpt lat="50.190675" lon="9.10768">
    <ele>122</ele>
    <time>2013-04-30T12:00:38Z</time>
  <cmt>extensions = 3.50 116.00</cmt>
    </trkpt>
    <trkpt lat="50.191021" lon="9.108285">
    <ele>122</ele>
    <time>2013-04-30T12:00:55Z</time>
  <cmt>extensions = 3.40 113.00</cmt>
    </trkpt>
    <trkpt lat="50.190934" lon="9.108477">
    <ele>122</ele>
    <time>2013-04-30T12:01:00Z</time>
  <cmt>extensions = 3.35 112.00</cmt>
    </trkpt>
    <trkpt lat="50.190582" lon="9.108787">
    <ele>122</ele>
    <time>2013-04-30T12:01:10Z</time>
  <cmt>extensions = 4.50 111.00</cmt>
    </trkpt>
    <trkpt lat="50.190264" lon="9.109038">
    <ele>122</ele>
    <time>2013-04-30T12:01:18Z</time>
  <cmt>extensions = 4.95 112.00</cmt>
    </trkpt>
    <trkpt lat="50.190108" lon="9.109125">
    <ele>122</ele>
    <time>2013-04-30T12:01:21Z</time>
  <cmt>extensions = 6.16 112.00</cmt>
    </trkpt>
    <trkpt lat="50.190132" lon="9.109364">
    <ele>122</ele>
    <time>2013-04-30T12:01:27Z</time>
  <cmt>extensions = 2.87 112.00</cmt>
    </trkpt>
    <trkpt lat="50.190132" lon="9.109364">
    <ele>122</ele>
    <time>2013-04-30T12:01:27Z</time>
  <cmt>extensions = 112.00</cmt>
    </trkpt>
    <trkpt lat="50.190246" lon="9.110214">
    <ele>121</ele>
    <time>2013-04-30T12:01:49Z</time>
  <cmt>extensions = 2.81 112.00</cmt>
    </trkpt>
    <trkpt lat="50.190246" lon="9.110214">
    <ele>121</ele>
    <time>2013-04-30T12:01:49Z</time>
  <cmt>extensions = 112.00</cmt>
    </trkpt>
    <trkpt lat="50.190166" lon="9.110546">
    <ele>120</ele>
    <time>2013-04-30T12:01:58Z</time>
  <cmt>extensions = 2.81 114.00</cmt>
    </trkpt>
    <trkpt lat="50.189973" lon="9.110727">
    <ele>120</ele>
    <time>2013-04-30T12:02:04Z</time>
  <cmt>extensions = 4.18 115.00</cmt>
    </trkpt>
    <trkpt lat="50.189586" lon="9.111088">
    <ele>120</ele>
    <time>2013-04-30T12:02:15Z</time>
  <cmt>extensions = 4.56 115.00</cmt>
    </trkpt>
    <trkpt lat="50.189152" lon="9.111521">
    <ele>120</ele>
    <time>2013-04-30T12:02:29Z</time>
  <cmt>extensions = 4.09 118.00</cmt>
    </trkpt>
    <trkpt lat="50.189349" lon="9.112087">
    <ele>120</ele>
    <time>2013-04-30T12:02:45Z</time>
  <cmt>extensions = 2.87 121.00</cmt>
    </trkpt>
    <trkpt lat="50.189797" lon="9.113051">
    <ele>121</ele>
    <time>2013-04-30T12:03:11Z</time>
  <cmt>extensions = 3.26 121.00</cmt>
    </trkpt>
    <trkpt lat="50.190071" lon="9.113891">
    <ele>121</ele>
    <time>2013-04-30T12:03:33Z</time>
  <cmt>extensions = 3.06 120.00</cmt>
    </trkpt>
    <trkpt lat="50.190314" lon="9.114092">
    <ele>121</ele>
    <time>2013-04-30T12:03:39Z</time>
  <cmt>extensions = 5.10 119.00</cmt>
    </trkpt>
    <trkpt lat="50.190629" lon="9.114139">
    <ele>121</ele>
    <time>2013-04-30T12:03:44Z</time>
  <cmt>extensions = 7.04 118.00</cmt>
    </trkpt>
    <trkpt lat="50.190765" lon="9.114351">
    <ele>121</ele>
    <time>2013-04-30T12:03:50Z</time>
  <cmt>extensions = 3.56 118.00</cmt>
    </trkpt>
    <trkpt lat="50.190821" lon="9.114954">
    <ele>121</ele>
    <time>2013-04-30T12:04:06Z</time>
  <cmt>extensions = 2.72 118.00</cmt>
    </trkpt>
    <trkpt lat="50.190803" lon="9.115618">
    <ele>121</ele>
    <time>2013-04-30T12:04:23Z</time>
  <cmt>extensions = 2.79 118.00</cmt>
    </trkpt>
    <trkpt lat="50.190705" lon="9.117127">
    <ele>121</ele>
    <time>2013-04-30T12:05:03Z</time>
  <cmt>extensions = 2.70 118.00</cmt>
    </trkpt>
    <trkpt lat="50.190645" lon="9.118153">
    <ele>122</ele>
    <time>2013-04-30T12:05:30Z</time>
  <cmt>extensions = 2.72 119.00</cmt>
    </trkpt>
    <trkpt lat="50.190664" lon="9.118666">
    <ele>122</ele>
    <time>2013-04-30T12:05:43Z</time>
  <cmt>extensions = 2.82 120.00</cmt>
    </trkpt>
    <trkpt lat="50.191013" lon="9.119754">
    <ele>122</ele>
    <time>2013-04-30T12:06:12Z</time>
  <cmt>extensions = 2.99 121.00</cmt>
    </trkpt>
    <trkpt lat="50.1914" lon="9.121151">
    <ele>122</ele>
    <time>2013-04-30T12:06:49Z</time>
  <cmt>extensions = 2.93 118.00</cmt>
    </trkpt>
    <trkpt lat="50.191541" lon="9.12154">
    <ele>122</ele>
    <time>2013-04-30T12:06:59Z</time>
  <cmt>extensions = 3.18 117.00</cmt>
    </trkpt>
    <trkpt lat="50.191464" lon="9.121801">
    <ele>122</ele>
    <time>2013-04-30T12:07:06Z</time>
  <cmt>extensions = 2.93 118.00</cmt>
    </trkpt>
    <trkpt lat="50.19126" lon="9.121934">
    <ele>122</ele>
    <time>2013-04-30T12:07:11Z</time>
  <cmt>extensions = 4.91 119.00</cmt>
    </trkpt>
    <trkpt lat="50.190904" lon="9.121992">
    <ele>122</ele>
    <time>2013-04-30T12:07:17Z</time>
  <cmt>extensions = 6.65 121.00</cmt>
    </trkpt>
    <trkpt lat="50.190524" lon="9.122197">
    <ele>123</ele>
    <time>2013-04-30T12:07:25Z</time>
  <cmt>extensions = 5.59 123.00</cmt>
    </trkpt>
    <trkpt lat="50.190194" lon="9.122287">
    <ele>123</ele>
    <time>2013-04-30T12:07:31Z</time>
  <cmt>extensions = 6.21 121.00</cmt>
    </trkpt>
    <trkpt lat="50.189808" lon="9.122343">
    <ele>123</ele>
    <time>2013-04-30T12:07:37Z</time>
  <cmt>extensions = 7.21 119.00</cmt>
    </trkpt>
    <trkpt lat="50.189269" lon="9.122636">
    <ele>123</ele>
    <time>2013-04-30T12:07:48Z</time>
  <cmt>extensions = 5.77 118.00</cmt>
    </trkpt>
    <trkpt lat="50.188855" lon="9.122916">
    <ele>124</ele>
    <time>2013-04-30T12:07:58Z</time>
  <cmt>extensions = 5.02 119.00</cmt>
    </trkpt>
    <trkpt lat="50.188495" lon="9.123228">
    <ele>124</ele>
    <time>2013-04-30T12:08:08Z</time>
  <cmt>extensions = 4.58 119.00</cmt>
    </trkpt>
    <trkpt lat="50.189581" lon="9.1275">
    <ele>124</ele>
    <time>2013-04-30T12:10:02Z</time>
  <cmt>extensions = 2.87 116.00</cmt>
    </trkpt>
    <trkpt lat="50.190273" lon="9.129893">
    <ele>123</ele>
    <time>2013-04-30T12:11:07Z</time>
  <cmt>extensions = 2.88 119.00</cmt>
    </trkpt>
    <trkpt lat="50.190545" lon="9.130588">
    <ele>123</ele>
    <time>2013-04-30T12:11:25Z</time>
  <cmt>extensions = 3.22 119.00</cmt>
    </trkpt>
    <trkpt lat="50.190807" lon="9.131026">
    <ele>123</ele>
    <time>2013-04-30T12:11:37Z</time>
  <cmt>extensions = 3.56 121.00</cmt>
    </trkpt>
    <trkpt lat="50.19154" lon="9.131617">
    <ele>122</ele>
    <time>2013-04-30T12:11:56Z</time>
  <cmt>extensions = 4.83 120.00</cmt>
    </trkpt>
    <trkpt lat="50.192431" lon="9.132464">
    <ele>122</ele>
    <time>2013-04-30T12:12:23Z</time>
  <cmt>extensions = 4.30 119.00</cmt>
    </trkpt>
    <trkpt lat="50.192624" lon="9.132767">
    <ele>122</ele>
    <time>2013-04-30T12:12:31Z</time>
  <cmt>extensions = 3.80 118.00</cmt>
    </trkpt>
    <trkpt lat="50.19254" lon="9.133096">
    <ele>122</ele>
    <time>2013-04-30T12:12:39Z</time>
  <cmt>extensions = 3.16 118.00</cmt>
    </trkpt>
    <trkpt lat="50.19214" lon="9.133716">
    <ele>122</ele>
    <time>2013-04-30T12:12:56Z</time>
  <cmt>extensions = 3.69 117.00</cmt>
    </trkpt>
    <trkpt lat="50.192264" lon="9.134098">
    <ele>122</ele>
    <time>2013-04-30T12:13:06Z</time>
  <cmt>extensions = 3.05 118.00</cmt>
    </trkpt>
    <trkpt lat="50.192553" lon="9.13438">
    <ele>122</ele>
    <time>2013-04-30T12:13:15Z</time>
  <cmt>extensions = 4.22 120.00</cmt>
    </trkpt>
    <trkpt lat="50.193145" lon="9.13479">
    <ele>122</ele>
    <time>2013-04-30T12:13:29Z</time>
  <cmt>extensions = 5.15 118.00</cmt>
    </trkpt>
    <trkpt lat="50.193524" lon="9.135007">
    <ele>123</ele>
    <time>2013-04-30T12:13:37Z</time>
  <cmt>extensions = 5.61 117.00</cmt>
    </trkpt>
    <trkpt lat="50.193876" lon="9.135429">
    <ele>123</ele>
    <time>2013-04-30T12:13:49Z</time>
  <cmt>extensions = 4.12 117.00</cmt>
    </trkpt>
    <trkpt lat="50.194086" lon="9.135913">
    <ele>123</ele>
    <time>2013-04-30T12:14:02Z</time>
  <cmt>extensions = 3.20 117.00</cmt>
    </trkpt>
    <trkpt lat="50.19456" lon="9.136939">
    <ele>124</ele>
    <time>2013-04-30T12:14:30Z</time>
  <cmt>extensions = 3.22 116.00</cmt>
    </trkpt>
    <trkpt lat="50.194906" lon="9.137844">
    <ele>126</ele>
    <time>2013-04-30T12:14:55Z</time>
  <cmt>extensions = 3.01 119.00</cmt>
    </trkpt>
    <trkpt lat="50.195092" lon="9.138057">
    <ele>126</ele>
    <time>2013-04-30T12:15:01Z</time>
  <cmt>extensions = 4.27 119.00</cmt>
    </trkpt>
    <trkpt lat="50.195234" lon="9.137699">
    <ele>126</ele>
    <time>2013-04-30T12:15:10Z</time>
  <cmt>extensions = 3.33 118.00</cmt>
    </trkpt>
    <trkpt lat="50.195443" lon="9.137133">
    <ele>126</ele>
    <time>2013-04-30T12:15:25Z</time>
  <cmt>extensions = 3.11 116.00</cmt>
    </trkpt>
    <trkpt lat="50.195577" lon="9.136766">
    <ele>125</ele>
    <time>2013-04-30T12:15:35Z</time>
  <cmt>extensions = 3.01 118.00</cmt>
    </trkpt>
    <trkpt lat="50.195798" lon="9.136516">
    <ele>125</ele>
    <time>2013-04-30T12:15:43Z</time>
  <cmt>extensions = 3.80 120.00</cmt>
    </trkpt>
    <trkpt lat="50.196011" lon="9.13673">
    <ele>125</ele>
    <time>2013-04-30T12:15:50Z</time>
  <cmt>extensions = 4.03 122.00</cmt>
    </trkpt>
    <trkpt lat="50.196192" lon="9.136779">
    <ele>125</ele>
    <time>2013-04-30T12:15:53Z</time>
  <cmt>extensions = 6.82 121.00</cmt>
    </trkpt>
    <trkpt lat="50.196192" lon="9.136779">
    <ele>125</ele>
    <time>2013-04-30T12:15:53Z</time>
  <cmt>extensions = 121.00</cmt>
    </trkpt>
    <trkpt lat="50.196205" lon="9.138165">
    <ele>124</ele>
    <time>2013-04-30T12:16:50Z</time>
  <cmt>extensions = 1.73 120.00</cmt>
    </trkpt>
    <trkpt lat="50.196216" lon="9.139442">
    <ele>124</ele>
    <time>2013-04-30T12:17:42Z</time>
  <cmt>extensions = 1.75 119.00</cmt>
    </trkpt>
    <trkpt lat="50.196316" lon="9.140414">
    <ele>124</ele>
    <time>2013-04-30T12:18:22Z</time>
  <cmt>extensions = 1.75 117.00</cmt>
    </trkpt>
    <trkpt lat="50.196298" lon="9.140746">
    <ele>124</ele>
    <time>2013-04-30T12:18:35Z</time>
  <cmt>extensions = 1.83 116.00</cmt>
    </trkpt>
    <trkpt lat="50.196141" lon="9.141349">
    <ele>124</ele>
    <time>2013-04-30T12:19:00Z</time>
  <cmt>extensions = 1.86 117.00</cmt>
    </trkpt>
    <trkpt lat="50.19585" lon="9.142314">
    <ele>126</ele>
    <time>2013-04-30T12:19:42Z</time>
  <cmt>extensions = 1.81 121.00</cmt>
    </trkpt>
    <trkpt lat="50.19585" lon="9.142495">
    <ele>126</ele>
    <time>2013-04-30T12:19:49Z</time>
  <cmt>extensions = 1.84 122.00</cmt>
    </trkpt>
    <trkpt lat="50.19585" lon="9.142495">
    <ele>126</ele>
    <time>2013-04-30T12:19:49Z</time>
  <cmt>extensions = 122.00</cmt>
    </trkpt>
    <trkpt lat="50.196481" lon="9.142994">
    <ele>126</ele>
    <time>2013-04-30T12:20:07Z</time>
  <cmt>extensions = 4.37 127.00</cmt>
    </trkpt>
    <trkpt lat="50.197244" lon="9.143534">
    <ele>126</ele>
    <time>2013-04-30T12:20:26Z</time>
  <cmt>extensions = 4.91 124.00</cmt>
    </trkpt>
    <trkpt lat="50.197798" lon="9.143787">
    <ele>126</ele>
    <time>2013-04-30T12:20:37Z</time>
  <cmt>extensions = 5.84 122.00</cmt>
    </trkpt>
    <trkpt lat="50.199025" lon="9.144101">
    <ele>126</ele>
    <time>2013-04-30T12:20:59Z</time>
  <cmt>extensions = 6.29 120.00</cmt>
    </trkpt>
    <trkpt lat="50.200043" lon="9.144926">
    <ele>126</ele>
    <time>2013-04-30T12:21:27Z</time>
  <cmt>extensions = 4.56 122.00</cmt>
    </trkpt>
    <trkpt lat="50.200043" lon="9.144926">
    <ele>126</ele>
    <time>2013-04-30T12:21:27Z</time>
  <cmt>extensions = 122.00</cmt>
    </trkpt>
    <trkpt lat="50.20098" lon="9.14562">
    <ele>128</ele>
    <time>2013-04-30T12:21:51Z</time>
  <cmt>extensions = 4.81 123.00</cmt>
    </trkpt>
    <trkpt lat="50.201616" lon="9.146049">
    <ele>129</ele>
    <time>2013-04-30T12:22:06Z</time>
  <cmt>extensions = 5.14 124.00</cmt>
    </trkpt>
    <trkpt lat="50.201871" lon="9.146317">
    <ele>129</ele>
    <time>2013-04-30T12:22:14Z</time>
  <cmt>extensions = 4.28 124.00</cmt>
    </trkpt>
    <trkpt lat="50.202278" lon="9.146379">
    <ele>129</ele>
    <time>2013-04-30T12:22:21Z</time>
  <cmt>extensions = 6.49 126.00</cmt>
    </trkpt>
    <trkpt lat="50.202451" lon="9.146469">
    <ele>129</ele>
    <time>2013-04-30T12:22:24Z</time>
  <cmt>extensions = 6.78 125.00</cmt>
    </trkpt>
    <trkpt lat="50.202567" lon="9.146742">
    <ele>129</ele>
    <time>2013-04-30T12:22:31Z</time>
  <cmt>extensions = 3.33 125.00</cmt>
    </trkpt>
    <trkpt lat="50.202935" lon="9.147648">
    <ele>128</ele>
    <time>2013-04-30T12:22:55Z</time>
  <cmt>extensions = 3.19 122.00</cmt>
    </trkpt>
    <trkpt lat="50.203321" lon="9.148586">
    <ele>127</ele>
    <time>2013-04-30T12:23:20Z</time>
  <cmt>extensions = 3.18 123.00</cmt>
    </trkpt>
    <trkpt lat="50.203583" lon="9.149292">
    <ele>127</ele>
    <time>2013-04-30T12:23:39Z</time>
  <cmt>extensions = 3.06 122.00</cmt>
    </trkpt>
    <trkpt lat="50.203872" lon="9.149639">
    <ele>126</ele>
    <time>2013-04-30T12:23:49Z</time>
  <cmt>extensions = 4.07 122.00</cmt>
    </trkpt>
    <trkpt lat="50.203998" lon="9.150037">
    <ele>126</ele>
    <time>2013-04-30T12:23:59Z</time>
  <cmt>extensions = 3.16 122.00</cmt>
    </trkpt>
    <trkpt lat="50.204631" lon="9.151189">
    <ele>127</ele>
    <time>2013-04-30T12:24:31Z</time>
  <cmt>extensions = 3.38 123.00</cmt>
    </trkpt>
    <trkpt lat="50.205087" lon="9.151638">
    <ele>128</ele>
    <time>2013-04-30T12:24:45Z</time>
  <cmt>extensions = 4.28 122.00</cmt>
    </trkpt>
    <trkpt lat="50.205245" lon="9.151789">
    <ele>128</ele>
    <time>2013-04-30T12:24:49Z</time>
  <cmt>extensions = 5.18 122.00</cmt>
    </trkpt>
    <trkpt lat="50.205332" lon="9.152003">
    <ele>128</ele>
    <time>2013-04-30T12:24:54Z</time>
  <cmt>extensions = 3.61 122.00</cmt>
    </trkpt>
    <trkpt lat="50.205332" lon="9.152003">
    <ele>128</ele>
    <time>2013-04-30T12:24:54Z</time>
  <cmt>extensions = 122.00</cmt>
    </trkpt>
    <trkpt lat="50.205274" lon="9.152335">
    <ele>128</ele>
    <time>2013-04-30T12:25:03Z</time>
  <cmt>extensions = 2.72 123.00</cmt>
    </trkpt>
    <trkpt lat="50.204864" lon="9.153391">
    <ele>126</ele>
    <time>2013-04-30T12:25:31Z</time>
  <cmt>extensions = 3.14 123.00</cmt>
    </trkpt>
    <trkpt lat="50.204632" lon="9.154175">
    <ele>126</ele>
    <time>2013-04-30T12:25:52Z</time>
  <cmt>extensions = 2.93 122.00</cmt>
    </trkpt>
    <trkpt lat="50.204495" lon="9.154778">
    <ele>125</ele>
    <time>2013-04-30T12:26:08Z</time>
  <cmt>extensions = 2.85 122.00</cmt>
    </trkpt>
    <trkpt lat="50.204228" lon="9.156368">
    <ele>125</ele>
    <time>2013-04-30T12:26:50Z</time>
  <cmt>extensions = 2.79 121.00</cmt>
    </trkpt>
    <trkpt lat="50.203944" lon="9.158744">
    <ele>125</ele>
    <time>2013-04-30T12:27:53Z</time>
  <cmt>extensions = 2.73 122.00</cmt>
    </trkpt>
    <trkpt lat="50.203694" lon="9.161423">
    <ele>125</ele>
    <time>2013-04-30T12:29:04Z</time>
  <cmt>extensions = 2.72 121.00</cmt>
    </trkpt>
    <trkpt lat="50.203437" lon="9.163909">
    <ele>125</ele>
    <time>2013-04-30T12:30:10Z</time>
  <cmt>extensions = 2.72 121.00</cmt>
    </trkpt>
    <trkpt lat="50.203351" lon="9.165268">
    <ele>126</ele>
    <time>2013-04-30T12:30:46Z</time>
  <cmt>extensions = 2.70 120.00</cmt>
    </trkpt>
    <trkpt lat="50.203309" lon="9.166472">
    <ele>126</ele>
    <time>2013-04-30T12:31:18Z</time>
  <cmt>extensions = 2.69 123.00</cmt>
    </trkpt>
    <trkpt lat="50.203525" lon="9.166472">
    <ele>126</ele>
    <time>2013-04-30T12:31:21Z</time>
  <cmt>extensions = 8.02 123.00</cmt>
    </trkpt>
    <trkpt lat="50.204092" lon="9.166586">
    <ele>127</ele>
    <time>2013-04-30T12:31:31Z</time>
  <cmt>extensions = 6.37 122.00</cmt>
    </trkpt>
    <trkpt lat="50.204342" lon="9.166698">
    <ele>127</ele>
    <time>2013-04-30T12:31:36Z</time>
  <cmt>extensions = 5.78 123.00</cmt>
    </trkpt>
    <trkpt lat="50.204442" lon="9.166881">
    <ele>127</ele>
    <time>2013-04-30T12:31:41Z</time>
  <cmt>extensions = 3.44 123.00</cmt>
    </trkpt>
    <trkpt lat="50.204486" lon="9.166908">
    <ele>128</ele>
    <time>2013-04-30T12:31:42Z</time>
  <cmt>extensions = 5.33 124.00</cmt>
    </trkpt>
    <trkpt lat="50.204693" lon="9.166766">
    <ele>128</ele>
    <time>2013-04-30T12:31:47Z</time>
  <cmt>extensions = 5.04 125.00</cmt>
    </trkpt>
    <trkpt lat="50.205607" lon="9.16695">
    <ele>132</ele>
    <time>2013-04-30T12:32:04Z</time>
  <cmt>extensions = 6.03 130.00</cmt>
    </trkpt>
    <trkpt lat="50.206037" lon="9.167027">
    <ele>134</ele>
    <time>2013-04-30T12:32:11Z</time>
  <cmt>extensions = 6.89 131.00</cmt>
    </trkpt>
    <trkpt lat="50.206267" lon="9.167077">
    <ele>135</ele>
    <time>2013-04-30T12:32:15Z</time>
  <cmt>extensions = 6.45 132.00</cmt>
    </trkpt>
    <trkpt lat="50.206487" lon="9.167114">
    <ele>136</ele>
    <time>2013-04-30T12:32:19Z</time>
  <cmt>extensions = 6.17 133.00</cmt>
    </trkpt>
    <trkpt lat="50.206558" lon="9.167253">
    <ele>136</ele>
    <time>2013-04-30T12:32:22Z</time>
  <cmt>extensions = 4.22 133.00</cmt>
    </trkpt>
    <trkpt lat="50.206521" lon="9.167795">
    <ele>137</ele>
    <time>2013-04-30T12:32:36Z</time>
  <cmt>extensions = 2.77 133.00</cmt>
    </trkpt>
    <trkpt lat="50.206379" lon="9.168329">
    <ele>137</ele>
    <time>2013-04-30T12:32:50Z</time>
  <cmt>extensions = 2.94 131.00</cmt>
    </trkpt>
    <trkpt lat="50.206126" lon="9.169118">
    <ele>135</ele>
    <time>2013-04-30T12:33:11Z</time>
  <cmt>extensions = 3.00 132.00</cmt>
    </trkpt>
    <trkpt lat="50.205711" lon="9.170226">
    <ele>133</ele>
    <time>2013-04-30T12:33:41Z</time>
  <cmt>extensions = 3.05 129.00</cmt>
    </trkpt>
    <trkpt lat="50.2055" lon="9.170925">
    <ele>132</ele>
    <time>2013-04-30T12:33:59Z</time>
  <cmt>extensions = 3.06 128.00</cmt>
    </trkpt>
    <trkpt lat="50.205399" lon="9.171427">
    <ele>132</ele>
    <time>2013-04-30T12:34:12Z</time>
  <cmt>extensions = 2.89 128.00</cmt>
    </trkpt>
    <trkpt lat="50.205272" lon="9.172063">
    <ele>133</ele>
    <time>2013-04-30T12:34:29Z</time>
  <cmt>extensions = 2.79 129.00</cmt>
    </trkpt>
    <trkpt lat="50.205142" lon="9.172858">
    <ele>133</ele>
    <time>2013-04-30T12:34:50Z</time>
  <cmt>extensions = 2.78 131.00</cmt>
    </trkpt>
    <trkpt lat="50.205059" lon="9.1739">
    <ele>134</ele>
    <time>2013-04-30T12:35:17Z</time>
  <cmt>extensions = 2.77 132.00</cmt>
    </trkpt>
    <trkpt lat="50.20499" lon="9.174756">
    <ele>134</ele>
    <time>2013-04-30T12:35:39Z</time>
  <cmt>extensions = 2.80 131.00</cmt>
    </trkpt>
    <trkpt lat="50.204909" lon="9.175808">
    <ele>134</ele>
    <time>2013-04-30T12:36:07Z</time>
  <cmt>extensions = 2.69 132.00</cmt>
    </trkpt>
    <trkpt lat="50.204861" lon="9.176474">
    <ele>134</ele>
    <time>2013-04-30T12:36:24Z</time>
  <cmt>extensions = 2.81 132.00</cmt>
    </trkpt>
    <trkpt lat="50.204795" lon="9.177265">
    <ele>134</ele>
    <time>2013-04-30T12:36:45Z</time>
  <cmt>extensions = 2.71 133.00</cmt>
    </trkpt>
    <trkpt lat="50.204771" lon="9.177894">
    <ele>134</ele>
    <time>2013-04-30T12:37:01Z</time>
  <cmt>extensions = 2.81 133.00</cmt>
    </trkpt>
    <trkpt lat="50.204752" lon="9.17838">
    <ele>134</ele>
    <time>2013-04-30T12:37:13Z</time>
  <cmt>extensions = 2.89 133.00</cmt>
    </trkpt>
    <trkpt lat="50.204747" lon="9.178713">
    <ele>134</ele>
    <time>2013-04-30T12:37:21Z</time>
  <cmt>extensions = 2.96 133.00</cmt>
    </trkpt>
    <trkpt lat="50.204824" lon="9.179149">
    <ele>134</ele>
    <time>2013-04-30T12:37:32Z</time>
  <cmt>extensions = 2.93 133.00</cmt>
    </trkpt>
    <trkpt lat="50.20492" lon="9.179587">
    <ele>133</ele>
    <time>2013-04-30T12:37:43Z</time>
  <cmt>extensions = 3.00 131.00</cmt>
    </trkpt>
    <trkpt lat="50.20489" lon="9.179626">
    <ele>133</ele>
    <time>2013-04-30T12:37:44Z</time>
  <cmt>extensions = 4.35 131.00</cmt>
    </trkpt>
    <trkpt lat="50.204599" lon="9.179617">
    <ele>133</ele>
    <time>2013-04-30T12:37:48Z</time>
  <cmt>extensions = 8.08 129.00</cmt>
    </trkpt>
    <trkpt lat="50.204305" lon="9.179518">
    <ele>132</ele>
    <time>2013-04-30T12:37:53Z</time>
  <cmt>extensions = 6.71 128.00</cmt>
    </trkpt>
    <trkpt lat="50.204249" lon="9.179558">
    <ele>132</ele>
    <time>2013-04-30T12:37:54Z</time>
  <cmt>extensions = 6.88 128.00</cmt>
    </trkpt>
    <trkpt lat="50.204129" lon="9.180067">
    <ele>131</ele>
    <time>2013-04-30T12:38:07Z</time>
  <cmt>extensions = 2.97 127.00</cmt>
    </trkpt>
    <trkpt lat="50.203859" lon="9.181016">
    <ele>131</ele>
    <time>2013-04-30T12:38:32Z</time>
  <cmt>extensions = 2.96 126.00</cmt>
    </trkpt>
    <trkpt lat="50.203573" lon="9.181639">
    <ele>130</ele>
    <time>2013-04-30T12:38:49Z</time>
  <cmt>extensions = 3.21 126.00</cmt>
    </trkpt>
    <trkpt lat="50.203415" lon="9.18183">
    <ele>130</ele>
    <time>2013-04-30T12:38:54Z</time>
  <cmt>extensions = 4.45 127.00</cmt>
    </trkpt>
    <trkpt lat="50.203173" lon="9.181928">
    <ele>130</ele>
    <time>2013-04-30T12:38:58Z</time>
  <cmt>extensions = 6.97 127.00</cmt>
    </trkpt>
    <trkpt lat="50.202936" lon="9.182121">
    <ele>129</ele>
    <time>2013-04-30T12:39:04Z</time>
  <cmt>extensions = 4.94 127.00</cmt>
    </trkpt>
    <trkpt lat="50.20266" lon="9.182386">
    <ele>129</ele>
    <time>2013-04-30T12:39:12Z</time>
  <cmt>extensions = 4.51 127.00</cmt>
    </trkpt>
    <trkpt lat="50.202437" lon="9.182597">
    <ele>129</ele>
    <time>2013-04-30T12:39:18Z</time>
  <cmt>extensions = 4.84 128.00</cmt>
    </trkpt>
    <trkpt lat="50.201894" lon="9.183279">
    <ele>130</ele>
    <time>2013-04-30T12:39:39Z</time>
  <cmt>extensions = 3.70 131.00</cmt>
    </trkpt>
    <trkpt lat="50.201141" lon="9.18436">
    <ele>130</ele>
    <time>2013-04-30T12:40:10Z</time>
  <cmt>extensions = 3.67 129.00</cmt>
    </trkpt>
    <trkpt lat="50.200647" lon="9.18483">
    <ele>130</ele>
    <time>2013-04-30T12:40:24Z</time>
  <cmt>extensions = 4.59 128.00</cmt>
    </trkpt>
    <trkpt lat="50.200437" lon="9.185032">
    <ele>130</ele>
    <time>2013-04-30T12:40:30Z</time>
  <cmt>extensions = 4.58 129.00</cmt>
    </trkpt>
    <trkpt lat="50.200058" lon="9.185214">
    <ele>130</ele>
    <time>2013-04-30T12:40:38Z</time>
  <cmt>extensions = 5.52 129.00</cmt>
    </trkpt>
    <trkpt lat="50.199829" lon="9.185293">
    <ele>130</ele>
    <time>2013-04-30T12:40:42Z</time>
  <cmt>extensions = 6.52 128.00</cmt>
    </trkpt>
    <trkpt lat="50.199656" lon="9.185341">
    <ele>129</ele>
    <time>2013-04-30T12:40:45Z</time>
  <cmt>extensions = 6.50 127.00</cmt>
    </trkpt>
    <trkpt lat="50.199519" lon="9.185378">
    <ele>129</ele>
    <time>2013-04-30T12:40:47Z</time>
  <cmt>extensions = 7.75 127.00</cmt>
    </trkpt>
    <trkpt lat="50.199618" lon="9.187391">
    <ele>131</ele>
    <time>2013-04-30T12:41:41Z</time>
  <cmt>extensions = 2.66 132.00</cmt>
    </trkpt>
    <trkpt lat="50.199623" lon="9.18812">
    <ele>131</ele>
    <time>2013-04-30T12:42:00Z</time>
  <cmt>extensions = 2.73 132.00</cmt>
    </trkpt>
    <trkpt lat="50.199563" lon="9.188331">
    <ele>131</ele>
    <time>2013-04-30T12:42:05Z</time>
  <cmt>extensions = 3.28 132.00</cmt>
    </trkpt>
    <trkpt lat="50.199285" lon="9.188359">
    <ele>131</ele>
    <time>2013-04-30T12:42:09Z</time>
  <cmt>extensions = 7.74 132.00</cmt>
    </trkpt>
    <trkpt lat="50.199317" lon="9.188659">
    <ele>131</ele>
    <time>2013-04-30T12:42:16Z</time>
  <cmt>extensions = 3.10 131.00</cmt>
    </trkpt>
    <trkpt lat="50.199348" lon="9.189024">
    <ele>131</ele>
    <time>2013-04-30T12:42:25Z</time>
  <cmt>extensions = 2.91 132.00</cmt>
    </trkpt>
    <trkpt lat="50.199367" lon="9.189477">
    <ele>131</ele>
    <time>2013-04-30T12:42:37Z</time>
  <cmt>extensions = 2.70 133.00</cmt>
    </trkpt>
    <trkpt lat="50.199473" lon="9.189992">
    <ele>132</ele>
    <time>2013-04-30T12:42:51Z</time>
  <cmt>extensions = 2.75 135.00</cmt>
    </trkpt>
    <trkpt lat="50.199671" lon="9.190558">
    <ele>132</ele>
    <time>2013-04-30T12:43:06Z</time>
  <cmt>extensions = 3.07 133.00</cmt>
    </trkpt>
    <trkpt lat="50.199558" lon="9.190866">
    <ele>132</ele>
    <time>2013-04-30T12:43:14Z</time>
  <cmt>extensions = 3.16 131.00</cmt>
    </trkpt>
    <trkpt lat="50.199533" lon="9.19094">
    <ele>132</ele>
    <time>2013-04-30T12:43:16Z</time>
  <cmt>extensions = 2.99 131.00</cmt>
    </trkpt>
    <trkpt lat="50.199372" lon="9.190833">
    <ele>132</ele>
    <time>2013-04-30T12:43:20Z</time>
  <cmt>extensions = 4.86 132.00</cmt>
    </trkpt>
    <trkpt lat="50.198895" lon="9.19074">
    <ele>133</ele>
    <time>2013-04-30T12:43:28Z</time>
  <cmt>extensions = 6.68 134.00</cmt>
    </trkpt>
    <trkpt lat="50.198184" lon="9.190961">
    <ele>133</ele>
    <time>2013-04-30T12:43:41Z</time>
  <cmt>extensions = 6.21 135.00</cmt>
    </trkpt>
    <trkpt lat="50.198044" lon="9.191022">
    <ele>133</ele>
    <time>2013-04-30T12:43:43Z</time>
  <cmt>extensions = 8.10 135.00</cmt>
    </trkpt>
    <trkpt lat="50.19788" lon="9.190909">
    <ele>133</ele>
    <time>2013-04-30T12:43:47Z</time>
  <cmt>extensions = 4.98 135.00</cmt>
    </trkpt>
    <trkpt lat="50.197637" lon="9.191289">
    <ele>132</ele>
    <time>2013-04-30T12:43:57Z</time>
  <cmt>extensions = 3.83 134.00</cmt>
    </trkpt>
    <trkpt lat="50.197468" lon="9.191583">
    <ele>132</ele>
    <time>2013-04-30T12:44:05Z</time>
  <cmt>extensions = 3.52 134.00</cmt>
    </trkpt>
    <trkpt lat="50.197369" lon="9.191798">
    <ele>132</ele>
    <time>2013-04-30T12:44:10Z</time>
  <cmt>extensions = 3.76 133.00</cmt>
    </trkpt>
    <trkpt lat="50.197301" lon="9.191853">
    <ele>132</ele>
    <time>2013-04-30T12:44:11Z</time>
  <cmt>extensions = 8.59 133.00</cmt>
    </trkpt>
    <trkpt lat="50.197152" lon="9.191493">
    <ele>132</ele>
    <time>2013-04-30T12:44:20Z</time>
  <cmt>extensions = 3.40 133.00</cmt>
    </trkpt>
    <trkpt lat="50.196953" lon="9.190462">
    <ele>131</ele>
    <time>2013-04-30T12:44:47Z</time>
  <cmt>extensions = 2.84 132.00</cmt>
    </trkpt>
    <trkpt lat="50.19679" lon="9.189596">
    <ele>131</ele>
    <time>2013-04-30T12:45:10Z</time>
  <cmt>extensions = 2.80 130.00</cmt>
    </trkpt>
  </trkseg>
</trk>
</gpx>
